<?xml version="1.0" encoding="UTF-8" standalone="no" ?>
<gpx xmlns="http://www.topografix.com/GPX/1/1" xmlns:xsi="http://www.w3.org/2001/XMLSchema-instance" xsi:schemaLocation="http://www.topografix.com/GPX/1/1 http://www.topografix.com/GPX/1/1/gpx.xsd" version="1.1" creator="VisuGPX - https://www.visugpx.com">
  <metadata>
    <name>nord vercors</name>
  </metadata>
  <trk>
    <name><![CDATA[Crêtes de la Molière depuis Grenoble - 8384 - UtagawaVTT.com]]></name>
    <trkseg>
      <trkpt lat="45.18519" lon="5.68827">
        <ele>217.3</ele>
        <time>2014-06-22T05:10:41Z</time>
      </trkpt>
      <trkpt lat="45.1852" lon="5.68816">
        <ele>217.2</ele>
        <time>2014-06-22T05:10:43Z</time>
      </trkpt>
      <trkpt lat="45.18513" lon="5.68813">
        <ele>217.4</ele>
        <time>2014-06-22T05:10:45Z</time>
      </trkpt>
      <trkpt lat="45.18506" lon="5.68819">
        <ele>217.8</ele>
        <time>2014-06-22T05:10:47Z</time>
      </trkpt>
      <trkpt lat="45.18496" lon="5.68821">
        <ele>218.5</ele>
        <time>2014-06-22T05:10:49Z</time>
      </trkpt>
      <trkpt lat="45.18483" lon="5.6882">
        <ele>220.1</ele>
        <time>2014-06-22T05:10:52Z</time>
      </trkpt>
      <trkpt lat="45.18475" lon="5.68822">
        <ele>221.2</ele>
        <time>2014-06-22T05:10:54Z</time>
      </trkpt>
      <trkpt lat="45.18466" lon="5.68826">
        <ele>222.2</ele>
        <time>2014-06-22T05:10:56Z</time>
      </trkpt>
      <trkpt lat="45.18411" lon="5.68831">
        <ele>227.6</ele>
        <time>2014-06-22T05:11:07Z</time>
      </trkpt>
      <trkpt lat="45.18376" lon="5.68808">
        <ele>225.4</ele>
        <time>2014-06-22T05:11:15Z</time>
      </trkpt>
      <trkpt lat="45.1834" lon="5.68799">
        <ele>222.7</ele>
        <time>2014-06-22T05:11:23Z</time>
      </trkpt>
      <trkpt lat="45.18262" lon="5.68794">
        <ele>217.7</ele>
        <time>2014-06-22T05:11:42Z</time>
      </trkpt>
      <trkpt lat="45.18268" lon="5.68793">
        <ele>218.2</ele>
        <time>2014-06-22T05:12:28Z</time>
      </trkpt>
      <trkpt lat="45.18272" lon="5.68781">
        <ele>218.8</ele>
        <time>2014-06-22T05:13:24Z</time>
      </trkpt>
      <trkpt lat="45.1822" lon="5.68762">
        <ele>217.7</ele>
        <time>2014-06-22T05:13:43Z</time>
      </trkpt>
      <trkpt lat="45.18216" lon="5.68766">
        <ele>217.6</ele>
        <time>2014-06-22T05:13:45Z</time>
      </trkpt>
      <trkpt lat="45.18211" lon="5.68765">
        <ele>217.6</ele>
        <time>2014-06-22T05:13:47Z</time>
      </trkpt>
      <trkpt lat="45.18176" lon="5.68732">
        <ele>222</ele>
        <time>2014-06-22T05:13:59Z</time>
      </trkpt>
      <trkpt lat="45.1817" lon="5.68718">
        <ele>224.9</ele>
        <time>2014-06-22T05:14:02Z</time>
      </trkpt>
      <trkpt lat="45.18141" lon="5.68677">
        <ele>228.7</ele>
        <time>2014-06-22T05:14:15Z</time>
      </trkpt>
      <trkpt lat="45.18141" lon="5.68672">
        <ele>229.4</ele>
        <time>2014-06-22T05:14:17Z</time>
      </trkpt>
      <trkpt lat="45.18141" lon="5.68667">
        <ele>230.4</ele>
        <time>2014-06-22T05:14:19Z</time>
      </trkpt>
      <trkpt lat="45.18143" lon="5.68663">
        <ele>232.4</ele>
        <time>2014-06-22T05:14:21Z</time>
      </trkpt>
      <trkpt lat="45.18147" lon="5.68663">
        <ele>233.4</ele>
        <time>2014-06-22T05:14:23Z</time>
      </trkpt>
      <trkpt lat="45.1815" lon="5.68663">
        <ele>233.9</ele>
        <time>2014-06-22T05:14:25Z</time>
      </trkpt>
      <trkpt lat="45.18166" lon="5.68664">
        <ele>236.1</ele>
        <time>2014-06-22T05:14:35Z</time>
      </trkpt>
      <trkpt lat="45.18171" lon="5.68666">
        <ele>236.1</ele>
        <time>2014-06-22T05:14:39Z</time>
      </trkpt>
      <trkpt lat="45.18181" lon="5.6866">
        <ele>240.7</ele>
        <time>2014-06-22T05:14:47Z</time>
      </trkpt>
      <trkpt lat="45.18177" lon="5.68656">
        <ele>242</ele>
        <time>2014-06-22T05:14:49Z</time>
      </trkpt>
      <trkpt lat="45.18174" lon="5.68653">
        <ele>242.9</ele>
        <time>2014-06-22T05:14:51Z</time>
      </trkpt>
      <trkpt lat="45.1815" lon="5.68637">
        <ele>245.9</ele>
        <time>2014-06-22T05:15:12Z</time>
      </trkpt>
      <trkpt lat="45.18129" lon="5.6862">
        <ele>249.3</ele>
        <time>2014-06-22T05:15:30Z</time>
      </trkpt>
      <trkpt lat="45.18107" lon="5.68599">
        <ele>253.3</ele>
        <time>2014-06-22T05:15:52Z</time>
      </trkpt>
      <trkpt lat="45.18097" lon="5.68582">
        <ele>258.3</ele>
        <time>2014-06-22T05:16:16Z</time>
      </trkpt>
      <trkpt lat="45.18118" lon="5.68587">
        <ele>261.6</ele>
        <time>2014-06-22T05:16:32Z</time>
      </trkpt>
      <trkpt lat="45.18146" lon="5.68591">
        <ele>267.2</ele>
        <time>2014-06-22T05:16:55Z</time>
      </trkpt>
      <trkpt lat="45.18172" lon="5.68613">
        <ele>262.3</ele>
        <time>2014-06-22T05:17:20Z</time>
      </trkpt>
      <trkpt lat="45.18192" lon="5.68613">
        <ele>264.5</ele>
        <time>2014-06-22T05:17:35Z</time>
      </trkpt>
      <trkpt lat="45.1822" lon="5.68601">
        <ele>272.9</ele>
        <time>2014-06-22T05:17:57Z</time>
      </trkpt>
      <trkpt lat="45.18237" lon="5.68599">
        <ele>275.3</ele>
        <time>2014-06-22T05:18:12Z</time>
      </trkpt>
      <trkpt lat="45.18263" lon="5.68598">
        <ele>277.8</ele>
        <time>2014-06-22T05:18:34Z</time>
      </trkpt>
      <trkpt lat="45.18288" lon="5.68586">
        <ele>283.6</ele>
        <time>2014-06-22T05:18:55Z</time>
      </trkpt>
      <trkpt lat="45.18305" lon="5.68575">
        <ele>288.1</ele>
        <time>2014-06-22T05:19:09Z</time>
      </trkpt>
      <trkpt lat="45.18328" lon="5.68565">
        <ele>291.3</ele>
        <time>2014-06-22T05:19:23Z</time>
      </trkpt>
      <trkpt lat="45.1837" lon="5.68512">
        <ele>300.9</ele>
        <time>2014-06-22T05:19:44Z</time>
      </trkpt>
      <trkpt lat="45.1838" lon="5.68503">
        <ele>301.4</ele>
        <time>2014-06-22T05:19:51Z</time>
      </trkpt>
      <trkpt lat="45.18384" lon="5.68501">
        <ele>301.4</ele>
        <time>2014-06-22T05:19:53Z</time>
      </trkpt>
      <trkpt lat="45.18388" lon="5.68499">
        <ele>301.2</ele>
        <time>2014-06-22T05:19:55Z</time>
      </trkpt>
      <trkpt lat="45.184" lon="5.68489">
        <ele>301.1</ele>
        <time>2014-06-22T05:20:03Z</time>
      </trkpt>
      <trkpt lat="45.18404" lon="5.68484">
        <ele>301.2</ele>
        <time>2014-06-22T05:20:06Z</time>
      </trkpt>
      <trkpt lat="45.18417" lon="5.68452">
        <ele>302.4</ele>
        <time>2014-06-22T05:20:18Z</time>
      </trkpt>
      <trkpt lat="45.18443" lon="5.68388">
        <ele>305.8</ele>
        <time>2014-06-22T05:20:35Z</time>
      </trkpt>
      <trkpt lat="45.18449" lon="5.68375">
        <ele>307.9</ele>
        <time>2014-06-22T05:20:37Z</time>
      </trkpt>
      <trkpt lat="45.18455" lon="5.68362">
        <ele>310</ele>
        <time>2014-06-22T05:20:39Z</time>
      </trkpt>
      <trkpt lat="45.18481" lon="5.68312">
        <ele>314.6</ele>
        <time>2014-06-22T05:20:50Z</time>
      </trkpt>
      <trkpt lat="45.18511" lon="5.68268">
        <ele>308.1</ele>
        <time>2014-06-22T05:21:04Z</time>
      </trkpt>
      <trkpt lat="45.18529" lon="5.68211">
        <ele>305.9</ele>
        <time>2014-06-22T05:21:25Z</time>
      </trkpt>
      <trkpt lat="45.18541" lon="5.68157">
        <ele>309.2</ele>
        <time>2014-06-22T05:21:43Z</time>
      </trkpt>
      <trkpt lat="45.18545" lon="5.68143">
        <ele>309.6</ele>
        <time>2014-06-22T05:21:49Z</time>
      </trkpt>
      <trkpt lat="45.18554" lon="5.68109">
        <ele>311</ele>
        <time>2014-06-22T05:22:01Z</time>
      </trkpt>
      <trkpt lat="45.18571" lon="5.68019">
        <ele>317.7</ele>
        <time>2014-06-22T05:22:27Z</time>
      </trkpt>
      <trkpt lat="45.18564" lon="5.67943">
        <ele>324.2</ele>
        <time>2014-06-22T05:22:48Z</time>
      </trkpt>
      <trkpt lat="45.18566" lon="5.67904">
        <ele>326.5</ele>
        <time>2014-06-22T05:22:59Z</time>
      </trkpt>
      <trkpt lat="45.18567" lon="5.67898">
        <ele>327</ele>
        <time>2014-06-22T05:23:01Z</time>
      </trkpt>
      <trkpt lat="45.18568" lon="5.67893">
        <ele>327.4</ele>
        <time>2014-06-22T05:23:03Z</time>
      </trkpt>
      <trkpt lat="45.18569" lon="5.67887">
        <ele>327.9</ele>
        <time>2014-06-22T05:23:05Z</time>
      </trkpt>
      <trkpt lat="45.1857" lon="5.67881">
        <ele>328.4</ele>
        <time>2014-06-22T05:23:07Z</time>
      </trkpt>
      <trkpt lat="45.18573" lon="5.67876">
        <ele>328.6</ele>
        <time>2014-06-22T05:23:09Z</time>
      </trkpt>
      <trkpt lat="45.18575" lon="5.67871">
        <ele>328.7</ele>
        <time>2014-06-22T05:23:11Z</time>
      </trkpt>
      <trkpt lat="45.18578" lon="5.67866">
        <ele>328.9</ele>
        <time>2014-06-22T05:23:13Z</time>
      </trkpt>
      <trkpt lat="45.18604" lon="5.67816">
        <ele>332.5</ele>
        <time>2014-06-22T05:23:36Z</time>
      </trkpt>
      <trkpt lat="45.18608" lon="5.67811">
        <ele>332.9</ele>
        <time>2014-06-22T05:23:38Z</time>
      </trkpt>
      <trkpt lat="45.1861" lon="5.67805">
        <ele>333.5</ele>
        <time>2014-06-22T05:23:40Z</time>
      </trkpt>
      <trkpt lat="45.18613" lon="5.67802">
        <ele>333.7</ele>
        <time>2014-06-22T05:23:42Z</time>
      </trkpt>
      <trkpt lat="45.18632" lon="5.67769">
        <ele>337.2</ele>
        <time>2014-06-22T05:23:55Z</time>
      </trkpt>
      <trkpt lat="45.18653" lon="5.67733">
        <ele>340.9</ele>
        <time>2014-06-22T05:24:10Z</time>
      </trkpt>
      <trkpt lat="45.18707" lon="5.67688">
        <ele>341.2</ele>
        <time>2014-06-22T05:24:32Z</time>
      </trkpt>
      <trkpt lat="45.18739" lon="5.67612">
        <ele>345</ele>
        <time>2014-06-22T05:24:50Z</time>
      </trkpt>
      <trkpt lat="45.18768" lon="5.67537">
        <ele>345.7</ele>
        <time>2014-06-22T05:25:11Z</time>
      </trkpt>
      <trkpt lat="45.18737" lon="5.67469">
        <ele>354.6</ele>
        <time>2014-06-22T05:25:35Z</time>
      </trkpt>
      <trkpt lat="45.18733" lon="5.67467">
        <ele>355.5</ele>
        <time>2014-06-22T05:25:38Z</time>
      </trkpt>
      <trkpt lat="45.18729" lon="5.67465">
        <ele>356.1</ele>
        <time>2014-06-22T05:25:40Z</time>
      </trkpt>
      <trkpt lat="45.18726" lon="5.67463">
        <ele>356.7</ele>
        <time>2014-06-22T05:25:42Z</time>
      </trkpt>
      <trkpt lat="45.18724" lon="5.6746">
        <ele>357.4</ele>
        <time>2014-06-22T05:25:44Z</time>
      </trkpt>
      <trkpt lat="45.18724" lon="5.67457">
        <ele>358</ele>
        <time>2014-06-22T05:25:46Z</time>
      </trkpt>
      <trkpt lat="45.18725" lon="5.67451">
        <ele>358.6</ele>
        <time>2014-06-22T05:25:49Z</time>
      </trkpt>
      <trkpt lat="45.18744" lon="5.6741">
        <ele>363</ele>
        <time>2014-06-22T05:26:10Z</time>
      </trkpt>
      <trkpt lat="45.18753" lon="5.67392">
        <ele>364</ele>
        <time>2014-06-22T05:26:20Z</time>
      </trkpt>
      <trkpt lat="45.18755" lon="5.67388">
        <ele>364.3</ele>
        <time>2014-06-22T05:26:22Z</time>
      </trkpt>
      <trkpt lat="45.18761" lon="5.67381">
        <ele>364.8</ele>
        <time>2014-06-22T05:26:26Z</time>
      </trkpt>
      <trkpt lat="45.18764" lon="5.67373">
        <ele>365.4</ele>
        <time>2014-06-22T05:26:29Z</time>
      </trkpt>
      <trkpt lat="45.18766" lon="5.67368">
        <ele>365.9</ele>
        <time>2014-06-22T05:26:31Z</time>
      </trkpt>
      <trkpt lat="45.18775" lon="5.67333">
        <ele>369.1</ele>
        <time>2014-06-22T05:26:43Z</time>
      </trkpt>
      <trkpt lat="45.18775" lon="5.67326">
        <ele>370</ele>
        <time>2014-06-22T05:26:45Z</time>
      </trkpt>
      <trkpt lat="45.18785" lon="5.67298">
        <ele>374.4</ele>
        <time>2014-06-22T05:26:59Z</time>
      </trkpt>
      <trkpt lat="45.18796" lon="5.67283">
        <ele>377</ele>
        <time>2014-06-22T05:27:08Z</time>
      </trkpt>
      <trkpt lat="45.1881" lon="5.67263">
        <ele>381.1</ele>
        <time>2014-06-22T05:27:21Z</time>
      </trkpt>
      <trkpt lat="45.18825" lon="5.67243">
        <ele>386</ele>
        <time>2014-06-22T05:27:36Z</time>
      </trkpt>
      <trkpt lat="45.18821" lon="5.67231">
        <ele>388.3</ele>
        <time>2014-06-22T05:27:43Z</time>
      </trkpt>
      <trkpt lat="45.18819" lon="5.6723">
        <ele>388.4</ele>
        <time>2014-06-22T05:27:45Z</time>
      </trkpt>
      <trkpt lat="45.18815" lon="5.6723">
        <ele>388.2</ele>
        <time>2014-06-22T05:27:47Z</time>
      </trkpt>
      <trkpt lat="45.18811" lon="5.6723">
        <ele>387.9</ele>
        <time>2014-06-22T05:27:49Z</time>
      </trkpt>
      <trkpt lat="45.18808" lon="5.6723">
        <ele>387.8</ele>
        <time>2014-06-22T05:27:51Z</time>
      </trkpt>
      <trkpt lat="45.18805" lon="5.6723">
        <ele>387.6</ele>
        <time>2014-06-22T05:27:53Z</time>
      </trkpt>
      <trkpt lat="45.18794" lon="5.67226">
        <ele>387.7</ele>
        <time>2014-06-22T05:28:00Z</time>
      </trkpt>
      <trkpt lat="45.18791" lon="5.67227">
        <ele>387.4</ele>
        <time>2014-06-22T05:28:15Z</time>
      </trkpt>
      <trkpt lat="45.18783" lon="5.67221">
        <ele>388.4</ele>
        <time>2014-06-22T05:28:23Z</time>
      </trkpt>
      <trkpt lat="45.18761" lon="5.67204">
        <ele>391.2</ele>
        <time>2014-06-22T05:28:36Z</time>
      </trkpt>
      <trkpt lat="45.18733" lon="5.67187">
        <ele>394.6</ele>
        <time>2014-06-22T05:28:55Z</time>
      </trkpt>
      <trkpt lat="45.1873" lon="5.67186">
        <ele>394.8</ele>
        <time>2014-06-22T05:28:57Z</time>
      </trkpt>
      <trkpt lat="45.18727" lon="5.67183">
        <ele>395.3</ele>
        <time>2014-06-22T05:28:59Z</time>
      </trkpt>
      <trkpt lat="45.18698" lon="5.67171">
        <ele>397.2</ele>
        <time>2014-06-22T05:29:14Z</time>
      </trkpt>
      <trkpt lat="45.18696" lon="5.67166">
        <ele>398.1</ele>
        <time>2014-06-22T05:29:16Z</time>
      </trkpt>
      <trkpt lat="45.18695" lon="5.67161">
        <ele>398.7</ele>
        <time>2014-06-22T05:29:18Z</time>
      </trkpt>
      <trkpt lat="45.18695" lon="5.67156">
        <ele>399.4</ele>
        <time>2014-06-22T05:29:20Z</time>
      </trkpt>
      <trkpt lat="45.18696" lon="5.67152">
        <ele>400</ele>
        <time>2014-06-22T05:29:22Z</time>
      </trkpt>
      <trkpt lat="45.18698" lon="5.67107">
        <ele>405.9</ele>
        <time>2014-06-22T05:29:39Z</time>
      </trkpt>
      <trkpt lat="45.18697" lon="5.67103">
        <ele>406.4</ele>
        <time>2014-06-22T05:29:41Z</time>
      </trkpt>
      <trkpt lat="45.18697" lon="5.67098">
        <ele>407.1</ele>
        <time>2014-06-22T05:29:43Z</time>
      </trkpt>
      <trkpt lat="45.18696" lon="5.67093">
        <ele>407.8</ele>
        <time>2014-06-22T05:29:45Z</time>
      </trkpt>
      <trkpt lat="45.18695" lon="5.6708">
        <ele>409</ele>
        <time>2014-06-22T05:29:50Z</time>
      </trkpt>
      <trkpt lat="45.18694" lon="5.67076">
        <ele>409</ele>
        <time>2014-06-22T05:29:52Z</time>
      </trkpt>
      <trkpt lat="45.18691" lon="5.67071">
        <ele>409</ele>
        <time>2014-06-22T05:29:54Z</time>
      </trkpt>
      <trkpt lat="45.18688" lon="5.6707">
        <ele>409</ele>
        <time>2014-06-22T05:29:56Z</time>
      </trkpt>
      <trkpt lat="45.18685" lon="5.6707">
        <ele>409</ele>
        <time>2014-06-22T05:29:58Z</time>
      </trkpt>
      <trkpt lat="45.18683" lon="5.67072">
        <ele>409</ele>
        <time>2014-06-22T05:30:00Z</time>
      </trkpt>
      <trkpt lat="45.18645" lon="5.67114">
        <ele>407.8</ele>
        <time>2014-06-22T05:30:24Z</time>
      </trkpt>
      <trkpt lat="45.1858" lon="5.67153">
        <ele>413.3</ele>
        <time>2014-06-22T05:30:52Z</time>
      </trkpt>
      <trkpt lat="45.18516" lon="5.67208">
        <ele>413.9</ele>
        <time>2014-06-22T05:31:18Z</time>
      </trkpt>
      <trkpt lat="45.18466" lon="5.67248">
        <ele>417.7</ele>
        <time>2014-06-22T05:31:45Z</time>
      </trkpt>
      <trkpt lat="45.18405" lon="5.67266">
        <ele>423.6</ele>
        <time>2014-06-22T05:32:08Z</time>
      </trkpt>
      <trkpt lat="45.18351" lon="5.67234">
        <ele>425.8</ele>
        <time>2014-06-22T05:32:26Z</time>
      </trkpt>
      <trkpt lat="45.18303" lon="5.67209">
        <ele>424.2</ele>
        <time>2014-06-22T05:32:40Z</time>
      </trkpt>
      <trkpt lat="45.18295" lon="5.67205">
        <ele>423.7</ele>
        <time>2014-06-22T05:32:42Z</time>
      </trkpt>
      <trkpt lat="45.18287" lon="5.67203">
        <ele>423.4</ele>
        <time>2014-06-22T05:32:44Z</time>
      </trkpt>
      <trkpt lat="45.18278" lon="5.67202">
        <ele>423.3</ele>
        <time>2014-06-22T05:32:46Z</time>
      </trkpt>
      <trkpt lat="45.18269" lon="5.67202">
        <ele>423.1</ele>
        <time>2014-06-22T05:32:48Z</time>
      </trkpt>
      <trkpt lat="45.1826" lon="5.67205">
        <ele>423.3</ele>
        <time>2014-06-22T05:32:50Z</time>
      </trkpt>
      <trkpt lat="45.18252" lon="5.67208">
        <ele>423.5</ele>
        <time>2014-06-22T05:32:52Z</time>
      </trkpt>
      <trkpt lat="45.18244" lon="5.6721">
        <ele>423.8</ele>
        <time>2014-06-22T05:32:54Z</time>
      </trkpt>
      <trkpt lat="45.18225" lon="5.67215">
        <ele>424.4</ele>
        <time>2014-06-22T05:32:58Z</time>
      </trkpt>
      <trkpt lat="45.18218" lon="5.67219">
        <ele>424.8</ele>
        <time>2014-06-22T05:33:00Z</time>
      </trkpt>
      <trkpt lat="45.1821" lon="5.67225">
        <ele>425.2</ele>
        <time>2014-06-22T05:33:02Z</time>
      </trkpt>
      <trkpt lat="45.18203" lon="5.67229">
        <ele>425.5</ele>
        <time>2014-06-22T05:33:04Z</time>
      </trkpt>
      <trkpt lat="45.18195" lon="5.67232">
        <ele>425.6</ele>
        <time>2014-06-22T05:33:06Z</time>
      </trkpt>
      <trkpt lat="45.18187" lon="5.67232">
        <ele>425.5</ele>
        <time>2014-06-22T05:33:08Z</time>
      </trkpt>
      <trkpt lat="45.18169" lon="5.67221">
        <ele>424.9</ele>
        <time>2014-06-22T05:33:14Z</time>
      </trkpt>
      <trkpt lat="45.18167" lon="5.67212">
        <ele>424.6</ele>
        <time>2014-06-22T05:33:16Z</time>
      </trkpt>
      <trkpt lat="45.18161" lon="5.67204">
        <ele>424.4</ele>
        <time>2014-06-22T05:33:18Z</time>
      </trkpt>
      <trkpt lat="45.18155" lon="5.67197">
        <ele>424.3</ele>
        <time>2014-06-22T05:33:20Z</time>
      </trkpt>
      <trkpt lat="45.18111" lon="5.67152">
        <ele>423.6</ele>
        <time>2014-06-22T05:33:34Z</time>
      </trkpt>
      <trkpt lat="45.18104" lon="5.67146">
        <ele>423.5</ele>
        <time>2014-06-22T05:33:36Z</time>
      </trkpt>
      <trkpt lat="45.18096" lon="5.67141">
        <ele>423.4</ele>
        <time>2014-06-22T05:33:38Z</time>
      </trkpt>
      <trkpt lat="45.18074" lon="5.6711">
        <ele>423.3</ele>
        <time>2014-06-22T05:33:47Z</time>
      </trkpt>
      <trkpt lat="45.18062" lon="5.6704">
        <ele>421.5</ele>
        <time>2014-06-22T05:33:57Z</time>
      </trkpt>
      <trkpt lat="45.1809" lon="5.66934">
        <ele>429.6</ele>
        <time>2014-06-22T05:34:24Z</time>
      </trkpt>
      <trkpt lat="45.18138" lon="5.66879">
        <ele>431.8</ele>
        <time>2014-06-22T05:34:52Z</time>
      </trkpt>
      <trkpt lat="45.18166" lon="5.66777">
        <ele>443.1</ele>
        <time>2014-06-22T05:35:26Z</time>
      </trkpt>
      <trkpt lat="45.18208" lon="5.66694">
        <ele>450.4</ele>
        <time>2014-06-22T05:36:04Z</time>
      </trkpt>
      <trkpt lat="45.18239" lon="5.66665">
        <ele>436.3</ele>
        <time>2014-06-22T05:36:23Z</time>
      </trkpt>
      <trkpt lat="45.18293" lon="5.66556">
        <ele>460.9</ele>
        <time>2014-06-22T05:37:01Z</time>
      </trkpt>
      <trkpt lat="45.18323" lon="5.66479">
        <ele>467.4</ele>
        <time>2014-06-22T05:37:39Z</time>
      </trkpt>
      <trkpt lat="45.18365" lon="5.66406">
        <ele>476.1</ele>
        <time>2014-06-22T05:38:14Z</time>
      </trkpt>
      <trkpt lat="45.18402" lon="5.66339">
        <ele>485.5</ele>
        <time>2014-06-22T05:38:48Z</time>
      </trkpt>
      <trkpt lat="45.18452" lon="5.66271">
        <ele>491.9</ele>
        <time>2014-06-22T05:39:29Z</time>
      </trkpt>
      <trkpt lat="45.18529" lon="5.66244">
        <ele>490.4</ele>
        <time>2014-06-22T05:40:07Z</time>
      </trkpt>
      <trkpt lat="45.18594" lon="5.66309">
        <ele>488.3</ele>
        <time>2014-06-22T05:40:42Z</time>
      </trkpt>
      <trkpt lat="45.18599" lon="5.66263">
        <ele>494.2</ele>
        <time>2014-06-22T05:41:10Z</time>
      </trkpt>
      <trkpt lat="45.1857" lon="5.66184">
        <ele>501.3</ele>
        <time>2014-06-22T05:41:52Z</time>
      </trkpt>
      <trkpt lat="45.18532" lon="5.66112">
        <ele>511.3</ele>
        <time>2014-06-22T05:42:59Z</time>
      </trkpt>
      <trkpt lat="45.18527" lon="5.66102">
        <ele>513.1</ele>
        <time>2014-06-22T05:44:35Z</time>
      </trkpt>
      <trkpt lat="45.18493" lon="5.66018">
        <ele>527.7</ele>
        <time>2014-06-22T05:45:16Z</time>
      </trkpt>
      <trkpt lat="45.18457" lon="5.65961">
        <ele>545.7</ele>
        <time>2014-06-22T05:45:54Z</time>
      </trkpt>
      <trkpt lat="45.18426" lon="5.66004">
        <ele>548.4</ele>
        <time>2014-06-22T05:46:29Z</time>
      </trkpt>
      <trkpt lat="45.18421" lon="5.66061">
        <ele>548.8</ele>
        <time>2014-06-22T05:46:53Z</time>
      </trkpt>
      <trkpt lat="45.18392" lon="5.65975">
        <ele>562.4</ele>
        <time>2014-06-22T05:47:33Z</time>
      </trkpt>
      <trkpt lat="45.18394" lon="5.66005">
        <ele>558.4</ele>
        <time>2014-06-22T05:47:53Z</time>
      </trkpt>
      <trkpt lat="45.18368" lon="5.66069">
        <ele>566.4</ele>
        <time>2014-06-22T05:48:29Z</time>
      </trkpt>
      <trkpt lat="45.18354" lon="5.66108">
        <ele>570</ele>
        <time>2014-06-22T05:48:51Z</time>
      </trkpt>
      <trkpt lat="45.18329" lon="5.66162">
        <ele>578.3</ele>
        <time>2014-06-22T05:49:22Z</time>
      </trkpt>
      <trkpt lat="45.18315" lon="5.66141">
        <ele>582.2</ele>
        <time>2014-06-22T05:49:51Z</time>
      </trkpt>
      <trkpt lat="45.18296" lon="5.66087">
        <ele>587</ele>
        <time>2014-06-22T05:50:23Z</time>
      </trkpt>
      <trkpt lat="45.18249" lon="5.66023">
        <ele>598.9</ele>
        <time>2014-06-22T05:51:08Z</time>
      </trkpt>
      <trkpt lat="45.1822" lon="5.65974">
        <ele>603.9</ele>
        <time>2014-06-22T05:51:40Z</time>
      </trkpt>
      <trkpt lat="45.18188" lon="5.65938">
        <ele>608.9</ele>
        <time>2014-06-22T05:52:09Z</time>
      </trkpt>
      <trkpt lat="45.18152" lon="5.65949">
        <ele>612.9</ele>
        <time>2014-06-22T05:52:39Z</time>
      </trkpt>
      <trkpt lat="45.18064" lon="5.66013">
        <ele>617.7</ele>
        <time>2014-06-22T05:53:28Z</time>
      </trkpt>
      <trkpt lat="45.18006" lon="5.66097">
        <ele>621.3</ele>
        <time>2014-06-22T05:53:59Z</time>
      </trkpt>
      <trkpt lat="45.17988" lon="5.66216">
        <ele>626.6</ele>
        <time>2014-06-22T05:54:27Z</time>
      </trkpt>
      <trkpt lat="45.17979" lon="5.66304">
        <ele>628.6</ele>
        <time>2014-06-22T05:55:07Z</time>
      </trkpt>
      <trkpt lat="45.1795" lon="5.66277">
        <ele>633.7</ele>
        <time>2014-06-22T05:55:28Z</time>
      </trkpt>
      <trkpt lat="45.17899" lon="5.6627">
        <ele>640.9</ele>
        <time>2014-06-22T05:55:59Z</time>
      </trkpt>
      <trkpt lat="45.17821" lon="5.66331">
        <ele>646</ele>
        <time>2014-06-22T05:56:29Z</time>
      </trkpt>
      <trkpt lat="45.1775" lon="5.66286">
        <ele>646.1</ele>
        <time>2014-06-22T05:57:02Z</time>
      </trkpt>
      <trkpt lat="45.17612" lon="5.66309">
        <ele>643.2</ele>
        <time>2014-06-22T05:57:32Z</time>
      </trkpt>
      <trkpt lat="45.17517" lon="5.66403">
        <ele>640.1</ele>
        <time>2014-06-22T05:58:23Z</time>
      </trkpt>
      <trkpt lat="45.17421" lon="5.66379">
        <ele>645</ele>
        <time>2014-06-22T05:58:57Z</time>
      </trkpt>
      <trkpt lat="45.17393" lon="5.66378">
        <ele>648.8</ele>
        <time>2014-06-22T05:59:05Z</time>
      </trkpt>
      <trkpt lat="45.17348" lon="5.6641">
        <ele>647.9</ele>
        <time>2014-06-22T05:59:15Z</time>
      </trkpt>
      <trkpt lat="45.17337" lon="5.66457">
        <ele>640.7</ele>
        <time>2014-06-22T05:59:30Z</time>
      </trkpt>
      <trkpt lat="45.17292" lon="5.66468">
        <ele>645.2</ele>
        <time>2014-06-22T05:59:44Z</time>
      </trkpt>
      <trkpt lat="45.17228" lon="5.66485">
        <ele>650.1</ele>
        <time>2014-06-22T06:00:00Z</time>
      </trkpt>
      <trkpt lat="45.17206" lon="5.66517">
        <ele>647.6</ele>
        <time>2014-06-22T06:00:05Z</time>
      </trkpt>
      <trkpt lat="45.17179" lon="5.66656">
        <ele>636.9</ele>
        <time>2014-06-22T06:00:24Z</time>
      </trkpt>
      <trkpt lat="45.17168" lon="5.66685">
        <ele>640.3</ele>
        <time>2014-06-22T06:00:37Z</time>
      </trkpt>
      <trkpt lat="45.17165" lon="5.66673">
        <ele>640.3</ele>
        <time>2014-06-22T06:00:41Z</time>
      </trkpt>
      <trkpt lat="45.1716" lon="5.66671">
        <ele>640.4</ele>
        <time>2014-06-22T06:00:45Z</time>
      </trkpt>
      <trkpt lat="45.17159" lon="5.6668">
        <ele>640.6</ele>
        <time>2014-06-22T06:00:49Z</time>
      </trkpt>
      <trkpt lat="45.17155" lon="5.66687">
        <ele>640.6</ele>
        <time>2014-06-22T06:00:53Z</time>
      </trkpt>
      <trkpt lat="45.17149" lon="5.66689">
        <ele>640.5</ele>
        <time>2014-06-22T06:00:57Z</time>
      </trkpt>
      <trkpt lat="45.17133" lon="5.66658">
        <ele>642.9</ele>
        <time>2014-06-22T06:01:15Z</time>
      </trkpt>
      <trkpt lat="45.17103" lon="5.66578">
        <ele>660.9</ele>
        <time>2014-06-22T06:01:57Z</time>
      </trkpt>
      <trkpt lat="45.17113" lon="5.66556">
        <ele>663.4</ele>
        <time>2014-06-22T06:02:12Z</time>
      </trkpt>
      <trkpt lat="45.17117" lon="5.66517">
        <ele>670.8</ele>
        <time>2014-06-22T06:02:42Z</time>
      </trkpt>
      <trkpt lat="45.17109" lon="5.66475">
        <ele>682.7</ele>
        <time>2014-06-22T06:03:20Z</time>
      </trkpt>
      <trkpt lat="45.17066" lon="5.66479">
        <ele>695.7</ele>
        <time>2014-06-22T06:04:02Z</time>
      </trkpt>
      <trkpt lat="45.17124" lon="5.66447">
        <ele>685.7</ele>
        <time>2014-06-22T06:04:42Z</time>
      </trkpt>
      <trkpt lat="45.17175" lon="5.66382">
        <ele>693</ele>
        <time>2014-06-22T06:05:01Z</time>
      </trkpt>
      <trkpt lat="45.1725" lon="5.66333">
        <ele>696</ele>
        <time>2014-06-22T06:05:35Z</time>
      </trkpt>
      <trkpt lat="45.17285" lon="5.66223">
        <ele>703.7</ele>
        <time>2014-06-22T06:06:18Z</time>
      </trkpt>
      <trkpt lat="45.17284" lon="5.66211">
        <ele>704.7</ele>
        <time>2014-06-22T06:06:22Z</time>
      </trkpt>
      <trkpt lat="45.17279" lon="5.66135">
        <ele>710.5</ele>
        <time>2014-06-22T06:06:46Z</time>
      </trkpt>
      <trkpt lat="45.17278" lon="5.66087">
        <ele>713.2</ele>
        <time>2014-06-22T06:07:03Z</time>
      </trkpt>
      <trkpt lat="45.17279" lon="5.6607">
        <ele>713.1</ele>
        <time>2014-06-22T06:07:09Z</time>
      </trkpt>
      <trkpt lat="45.17279" lon="5.66055">
        <ele>713.6</ele>
        <time>2014-06-22T06:07:13Z</time>
      </trkpt>
      <trkpt lat="45.17266" lon="5.65962">
        <ele>720.2</ele>
        <time>2014-06-22T06:07:43Z</time>
      </trkpt>
      <trkpt lat="45.17258" lon="5.65889">
        <ele>726.2</ele>
        <time>2014-06-22T06:08:08Z</time>
      </trkpt>
      <trkpt lat="45.17318" lon="5.65786">
        <ele>731.1</ele>
        <time>2014-06-22T06:08:57Z</time>
      </trkpt>
      <trkpt lat="45.174" lon="5.65717">
        <ele>730.8</ele>
        <time>2014-06-22T06:09:36Z</time>
      </trkpt>
      <trkpt lat="45.17451" lon="5.65603">
        <ele>739</ele>
        <time>2014-06-22T06:10:15Z</time>
      </trkpt>
      <trkpt lat="45.17516" lon="5.65472">
        <ele>739.1</ele>
        <time>2014-06-22T06:11:03Z</time>
      </trkpt>
      <trkpt lat="45.17549" lon="5.65373">
        <ele>745.3</ele>
        <time>2014-06-22T06:11:31Z</time>
      </trkpt>
      <trkpt lat="45.1749" lon="5.65328">
        <ele>758.2</ele>
        <time>2014-06-22T06:12:20Z</time>
      </trkpt>
      <trkpt lat="45.17405" lon="5.65438">
        <ele>763.6</ele>
        <time>2014-06-22T06:13:19Z</time>
      </trkpt>
      <trkpt lat="45.17342" lon="5.65462">
        <ele>769</ele>
        <time>2014-06-22T06:13:50Z</time>
      </trkpt>
      <trkpt lat="45.17333" lon="5.65473">
        <ele>768.6</ele>
        <time>2014-06-22T06:13:55Z</time>
      </trkpt>
      <trkpt lat="45.17326" lon="5.65479">
        <ele>769.2</ele>
        <time>2014-06-22T06:13:59Z</time>
      </trkpt>
      <trkpt lat="45.17304" lon="5.65509">
        <ele>769.9</ele>
        <time>2014-06-22T06:14:13Z</time>
      </trkpt>
      <trkpt lat="45.17298" lon="5.65519">
        <ele>769.9</ele>
        <time>2014-06-22T06:14:17Z</time>
      </trkpt>
      <trkpt lat="45.17272" lon="5.65553">
        <ele>770.6</ele>
        <time>2014-06-22T06:14:33Z</time>
      </trkpt>
      <trkpt lat="45.17222" lon="5.65601">
        <ele>775.6</ele>
        <time>2014-06-22T06:15:03Z</time>
      </trkpt>
      <trkpt lat="45.17159" lon="5.6563">
        <ele>789.7</ele>
        <time>2014-06-22T06:15:36Z</time>
      </trkpt>
      <trkpt lat="45.17123" lon="5.65603">
        <ele>800.2</ele>
        <time>2014-06-22T06:16:24Z</time>
      </trkpt>
      <trkpt lat="45.17036" lon="5.65672">
        <ele>811.2</ele>
        <time>2014-06-22T06:16:29Z</time>
      </trkpt>
      <trkpt lat="45.17013" lon="5.65749">
        <ele>803.6</ele>
        <time>2014-06-22T06:17:00Z</time>
      </trkpt>
      <trkpt lat="45.16986" lon="5.6589">
        <ele>804.8</ele>
        <time>2014-06-22T06:17:45Z</time>
      </trkpt>
      <trkpt lat="45.16936" lon="5.65989">
        <ele>811</ele>
        <time>2014-06-22T06:18:33Z</time>
      </trkpt>
      <trkpt lat="45.16846" lon="5.65981">
        <ele>808.5</ele>
        <time>2014-06-22T06:19:13Z</time>
      </trkpt>
      <trkpt lat="45.16779" lon="5.65892">
        <ele>816.6</ele>
        <time>2014-06-22T06:19:55Z</time>
      </trkpt>
      <trkpt lat="45.16727" lon="5.6579">
        <ele>833.2</ele>
        <time>2014-06-22T06:20:36Z</time>
      </trkpt>
      <trkpt lat="45.16665" lon="5.65728">
        <ele>837.6</ele>
        <time>2014-06-22T06:21:10Z</time>
      </trkpt>
      <trkpt lat="45.16615" lon="5.65687">
        <ele>846.8</ele>
        <time>2014-06-22T06:21:37Z</time>
      </trkpt>
      <trkpt lat="45.16496" lon="5.65724">
        <ele>844</ele>
        <time>2014-06-22T06:22:31Z</time>
      </trkpt>
      <trkpt lat="45.16452" lon="5.65736">
        <ele>846.8</ele>
        <time>2014-06-22T06:22:52Z</time>
      </trkpt>
      <trkpt lat="45.16393" lon="5.65746">
        <ele>850.2</ele>
        <time>2014-06-22T06:23:20Z</time>
      </trkpt>
      <trkpt lat="45.16397" lon="5.65708">
        <ele>857.8</ele>
        <time>2014-06-22T06:23:59Z</time>
      </trkpt>
      <trkpt lat="45.16433" lon="5.65668">
        <ele>861.7</ele>
        <time>2014-06-22T06:24:30Z</time>
      </trkpt>
      <trkpt lat="45.16448" lon="5.65643">
        <ele>868.8</ele>
        <time>2014-06-22T06:24:50Z</time>
      </trkpt>
      <trkpt lat="45.16508" lon="5.65626">
        <ele>868.6</ele>
        <time>2014-06-22T06:25:21Z</time>
      </trkpt>
      <trkpt lat="45.16567" lon="5.65564">
        <ele>879.7</ele>
        <time>2014-06-22T06:25:58Z</time>
      </trkpt>
      <trkpt lat="45.16607" lon="5.65516">
        <ele>887.8</ele>
        <time>2014-06-22T06:26:23Z</time>
      </trkpt>
      <trkpt lat="45.16637" lon="5.65471">
        <ele>899.2</ele>
        <time>2014-06-22T06:26:52Z</time>
      </trkpt>
      <trkpt lat="45.16672" lon="5.6544">
        <ele>905.8</ele>
        <time>2014-06-22T06:27:18Z</time>
      </trkpt>
      <trkpt lat="45.16716" lon="5.6539">
        <ele>911.2</ele>
        <time>2014-06-22T06:27:54Z</time>
      </trkpt>
      <trkpt lat="45.167" lon="5.65348">
        <ele>921.3</ele>
        <time>2014-06-22T06:28:27Z</time>
      </trkpt>
      <trkpt lat="45.16678" lon="5.65343">
        <ele>926.7</ele>
        <time>2014-06-22T06:29:05Z</time>
      </trkpt>
      <trkpt lat="45.16663" lon="5.6528">
        <ele>935.4</ele>
        <time>2014-06-22T06:29:36Z</time>
      </trkpt>
      <trkpt lat="45.1667" lon="5.65204">
        <ele>944.9</ele>
        <time>2014-06-22T06:30:01Z</time>
      </trkpt>
      <trkpt lat="45.16687" lon="5.65149">
        <ele>948</ele>
        <time>2014-06-22T06:30:17Z</time>
      </trkpt>
      <trkpt lat="45.1674" lon="5.65011">
        <ele>947.3</ele>
        <time>2014-06-22T06:31:02Z</time>
      </trkpt>
      <trkpt lat="45.16745" lon="5.64996">
        <ele>947.7</ele>
        <time>2014-06-22T06:31:07Z</time>
      </trkpt>
      <trkpt lat="45.16759" lon="5.64917">
        <ele>952.8</ele>
        <time>2014-06-22T06:31:35Z</time>
      </trkpt>
      <trkpt lat="45.16762" lon="5.64889">
        <ele>956</ele>
        <time>2014-06-22T06:31:44Z</time>
      </trkpt>
      <trkpt lat="45.16758" lon="5.64871">
        <ele>960.4</ele>
        <time>2014-06-22T06:31:48Z</time>
      </trkpt>
      <trkpt lat="45.16773" lon="5.64842">
        <ele>959</ele>
        <time>2014-06-22T06:31:59Z</time>
      </trkpt>
      <trkpt lat="45.16851" lon="5.64721">
        <ele>955</ele>
        <time>2014-06-22T06:32:45Z</time>
      </trkpt>
      <trkpt lat="45.16875" lon="5.64686">
        <ele>957.9</ele>
        <time>2014-06-22T06:33:01Z</time>
      </trkpt>
      <trkpt lat="45.16884" lon="5.64682">
        <ele>957.4</ele>
        <time>2014-06-22T06:33:05Z</time>
      </trkpt>
      <trkpt lat="45.1692" lon="5.64667">
        <ele>956.2</ele>
        <time>2014-06-22T06:33:21Z</time>
      </trkpt>
      <trkpt lat="45.16996" lon="5.64671">
        <ele>959.7</ele>
        <time>2014-06-22T06:33:57Z</time>
      </trkpt>
      <trkpt lat="45.17056" lon="5.64674">
        <ele>959.4</ele>
        <time>2014-06-22T06:34:21Z</time>
      </trkpt>
      <trkpt lat="45.17062" lon="5.64667">
        <ele>961</ele>
        <time>2014-06-22T06:34:25Z</time>
      </trkpt>
      <trkpt lat="45.17063" lon="5.64657">
        <ele>963.1</ele>
        <time>2014-06-22T06:34:29Z</time>
      </trkpt>
      <trkpt lat="45.17052" lon="5.64659">
        <ele>962.7</ele>
        <time>2014-06-22T06:34:35Z</time>
      </trkpt>
      <trkpt lat="45.17038" lon="5.64665">
        <ele>961.4</ele>
        <time>2014-06-22T06:34:44Z</time>
      </trkpt>
      <trkpt lat="45.17032" lon="5.64659">
        <ele>962.7</ele>
        <time>2014-06-22T06:34:49Z</time>
      </trkpt>
      <trkpt lat="45.17029" lon="5.64648">
        <ele>965.4</ele>
        <time>2014-06-22T06:34:56Z</time>
      </trkpt>
      <trkpt lat="45.1702" lon="5.6461">
        <ele>974.2</ele>
        <time>2014-06-22T06:35:15Z</time>
      </trkpt>
      <trkpt lat="45.17005" lon="5.64574">
        <ele>982.9</ele>
        <time>2014-06-22T06:35:46Z</time>
      </trkpt>
      <trkpt lat="45.16945" lon="5.64488">
        <ele>998.3</ele>
        <time>2014-06-22T06:36:38Z</time>
      </trkpt>
      <trkpt lat="45.16888" lon="5.64468">
        <ele>1003.4</ele>
        <time>2014-06-22T06:37:16Z</time>
      </trkpt>
      <trkpt lat="45.16838" lon="5.64455">
        <ele>1010.7</ele>
        <time>2014-06-22T06:37:55Z</time>
      </trkpt>
      <trkpt lat="45.16865" lon="5.64416">
        <ele>1017.1</ele>
        <time>2014-06-22T06:38:21Z</time>
      </trkpt>
      <trkpt lat="45.16909" lon="5.64373">
        <ele>1024.4</ele>
        <time>2014-06-22T06:39:04Z</time>
      </trkpt>
      <trkpt lat="45.16973" lon="5.64417">
        <ele>1016</ele>
        <time>2014-06-22T06:39:47Z</time>
      </trkpt>
      <trkpt lat="45.17032" lon="5.64377">
        <ele>1025.4</ele>
        <time>2014-06-22T06:40:26Z</time>
      </trkpt>
      <trkpt lat="45.17022" lon="5.64354">
        <ele>1029.9</ele>
        <time>2014-06-22T06:41:06Z</time>
      </trkpt>
      <trkpt lat="45.16982" lon="5.64334">
        <ele>1034.8</ele>
        <time>2014-06-22T06:41:38Z</time>
      </trkpt>
      <trkpt lat="45.1692" lon="5.6429">
        <ele>1044.7</ele>
        <time>2014-06-22T06:42:29Z</time>
      </trkpt>
      <trkpt lat="45.16911" lon="5.64205">
        <ele>1063</ele>
        <time>2014-06-22T06:43:10Z</time>
      </trkpt>
      <trkpt lat="45.16926" lon="5.64156">
        <ele>1070.4</ele>
        <time>2014-06-22T06:43:49Z</time>
      </trkpt>
      <trkpt lat="45.16893" lon="5.64107">
        <ele>1078.7</ele>
        <time>2014-06-22T06:44:39Z</time>
      </trkpt>
      <trkpt lat="45.16866" lon="5.64053">
        <ele>1087</ele>
        <time>2014-06-22T06:45:24Z</time>
      </trkpt>
      <trkpt lat="45.16816" lon="5.64027">
        <ele>1096</ele>
        <time>2014-06-22T06:45:54Z</time>
      </trkpt>
      <trkpt lat="45.16814" lon="5.6398">
        <ele>1102.3</ele>
        <time>2014-06-22T06:46:15Z</time>
      </trkpt>
      <trkpt lat="45.16813" lon="5.63968">
        <ele>1103.8</ele>
        <time>2014-06-22T06:46:19Z</time>
      </trkpt>
      <trkpt lat="45.16833" lon="5.63943">
        <ele>1104.2</ele>
        <time>2014-06-22T06:46:43Z</time>
      </trkpt>
      <trkpt lat="45.16827" lon="5.63939">
        <ele>1105.6</ele>
        <time>2014-06-22T06:46:47Z</time>
      </trkpt>
      <trkpt lat="45.16821" lon="5.63938">
        <ele>1106.5</ele>
        <time>2014-06-22T06:46:51Z</time>
      </trkpt>
      <trkpt lat="45.16811" lon="5.63926">
        <ele>1109.3</ele>
        <time>2014-06-22T06:47:03Z</time>
      </trkpt>
      <trkpt lat="45.16809" lon="5.63919">
        <ele>1110.3</ele>
        <time>2014-06-22T06:47:07Z</time>
      </trkpt>
      <trkpt lat="45.16807" lon="5.63911">
        <ele>1111.5</ele>
        <time>2014-06-22T06:47:12Z</time>
      </trkpt>
      <trkpt lat="45.16801" lon="5.63888">
        <ele>1114.5</ele>
        <time>2014-06-22T06:47:24Z</time>
      </trkpt>
      <trkpt lat="45.16774" lon="5.63834">
        <ele>1122.2</ele>
        <time>2014-06-22T06:48:01Z</time>
      </trkpt>
      <trkpt lat="45.16747" lon="5.63787">
        <ele>1126.8</ele>
        <time>2014-06-22T06:48:35Z</time>
      </trkpt>
      <trkpt lat="45.1672" lon="5.63762">
        <ele>1129</ele>
        <time>2014-06-22T06:49:00Z</time>
      </trkpt>
      <trkpt lat="45.16712" lon="5.63732">
        <ele>1134.3</ele>
        <time>2014-06-22T06:49:22Z</time>
      </trkpt>
      <trkpt lat="45.16751" lon="5.63716">
        <ele>1137.7</ele>
        <time>2014-06-22T06:49:41Z</time>
      </trkpt>
      <trkpt lat="45.16818" lon="5.6377">
        <ele>1131</ele>
        <time>2014-06-22T06:50:08Z</time>
      </trkpt>
      <trkpt lat="45.16938" lon="5.63715">
        <ele>1138.7</ele>
        <time>2014-06-22T06:50:51Z</time>
      </trkpt>
      <trkpt lat="45.17027" lon="5.63607">
        <ele>1153.3</ele>
        <time>2014-06-22T06:51:37Z</time>
      </trkpt>
      <trkpt lat="45.17058" lon="5.63578">
        <ele>1154.8</ele>
        <time>2014-06-22T06:51:54Z</time>
      </trkpt>
      <trkpt lat="45.17068" lon="5.63578">
        <ele>1153.2</ele>
        <time>2014-06-22T06:51:58Z</time>
      </trkpt>
      <trkpt lat="45.1711" lon="5.63569">
        <ele>1150.6</ele>
        <time>2014-06-22T06:52:15Z</time>
      </trkpt>
      <trkpt lat="45.172" lon="5.63458">
        <ele>1154.5</ele>
        <time>2014-06-22T06:53:01Z</time>
      </trkpt>
      <trkpt lat="45.17178" lon="5.63346">
        <ele>1161.7</ele>
        <time>2014-06-22T06:53:31Z</time>
      </trkpt>
      <trkpt lat="45.17178" lon="5.63143">
        <ele>1161.6</ele>
        <time>2014-06-22T06:54:20Z</time>
      </trkpt>
      <trkpt lat="45.1712" lon="5.63049">
        <ele>1161.7</ele>
        <time>2014-06-22T06:54:43Z</time>
      </trkpt>
      <trkpt lat="45.17067" lon="5.6294">
        <ele>1165</ele>
        <time>2014-06-22T06:55:03Z</time>
      </trkpt>
      <trkpt lat="45.17066" lon="5.62918">
        <ele>1165.6</ele>
        <time>2014-06-22T06:55:07Z</time>
      </trkpt>
      <trkpt lat="45.17032" lon="5.62725">
        <ele>1169.2</ele>
        <time>2014-06-22T06:55:54Z</time>
      </trkpt>
      <trkpt lat="45.16972" lon="5.62684">
        <ele>1172</ele>
        <time>2014-06-22T06:56:08Z</time>
      </trkpt>
      <trkpt lat="45.16947" lon="5.62659">
        <ele>1176.4</ele>
        <time>2014-06-22T06:56:13Z</time>
      </trkpt>
      <trkpt lat="45.16931" lon="5.6263">
        <ele>1178.7</ele>
        <time>2014-06-22T06:56:17Z</time>
      </trkpt>
      <trkpt lat="45.16929" lon="5.62594">
        <ele>1177.3</ele>
        <time>2014-06-22T06:56:21Z</time>
      </trkpt>
      <trkpt lat="45.16924" lon="5.62483">
        <ele>1168.7</ele>
        <time>2014-06-22T06:56:36Z</time>
      </trkpt>
      <trkpt lat="45.16848" lon="5.62433">
        <ele>1162.6</ele>
        <time>2014-06-22T06:56:56Z</time>
      </trkpt>
      <trkpt lat="45.16763" lon="5.62451">
        <ele>1165.2</ele>
        <time>2014-06-22T06:57:08Z</time>
      </trkpt>
      <trkpt lat="45.16731" lon="5.62433">
        <ele>1162.1</ele>
        <time>2014-06-22T06:57:12Z</time>
      </trkpt>
      <trkpt lat="45.16662" lon="5.62387">
        <ele>1161.2</ele>
        <time>2014-06-22T06:57:26Z</time>
      </trkpt>
      <trkpt lat="45.16632" lon="5.62393">
        <ele>1158.3</ele>
        <time>2014-06-22T06:57:33Z</time>
      </trkpt>
      <trkpt lat="45.16592" lon="5.62441">
        <ele>1157.8</ele>
        <time>2014-06-22T06:57:40Z</time>
      </trkpt>
      <trkpt lat="45.16565" lon="5.62515">
        <ele>1163.7</ele>
        <time>2014-06-22T06:57:48Z</time>
      </trkpt>
      <trkpt lat="45.16559" lon="5.62559">
        <ele>1170.5</ele>
        <time>2014-06-22T06:57:54Z</time>
      </trkpt>
      <trkpt lat="45.16533" lon="5.62607">
        <ele>1170.7</ele>
        <time>2014-06-22T06:58:09Z</time>
      </trkpt>
      <trkpt lat="45.16474" lon="5.62662">
        <ele>1165</ele>
        <time>2014-06-22T06:58:26Z</time>
      </trkpt>
      <trkpt lat="45.16457" lon="5.62662">
        <ele>1164</ele>
        <time>2014-06-22T06:58:30Z</time>
      </trkpt>
      <trkpt lat="45.16407" lon="5.62645">
        <ele>1161.7</ele>
        <time>2014-06-22T06:58:43Z</time>
      </trkpt>
      <trkpt lat="45.16304" lon="5.62552">
        <ele>1160.6</ele>
        <time>2014-06-22T06:59:16Z</time>
      </trkpt>
      <trkpt lat="45.16323" lon="5.62482">
        <ele>1149.3</ele>
        <time>2014-06-22T06:59:29Z</time>
      </trkpt>
      <trkpt lat="45.16275" lon="5.62427">
        <ele>1149.6</ele>
        <time>2014-06-22T06:59:39Z</time>
      </trkpt>
      <trkpt lat="45.16217" lon="5.62358">
        <ele>1157.5</ele>
        <time>2014-06-22T06:59:55Z</time>
      </trkpt>
      <trkpt lat="45.1621" lon="5.62263">
        <ele>1153.1</ele>
        <time>2014-06-22T07:00:11Z</time>
      </trkpt>
      <trkpt lat="45.16207" lon="5.62241">
        <ele>1152.4</ele>
        <time>2014-06-22T07:00:15Z</time>
      </trkpt>
      <trkpt lat="45.16191" lon="5.62217">
        <ele>1154.3</ele>
        <time>2014-06-22T07:00:21Z</time>
      </trkpt>
      <trkpt lat="45.16164" lon="5.6219">
        <ele>1157.8</ele>
        <time>2014-06-22T07:00:27Z</time>
      </trkpt>
      <trkpt lat="45.16146" lon="5.62158">
        <ele>1159.3</ele>
        <time>2014-06-22T07:00:31Z</time>
      </trkpt>
      <trkpt lat="45.16138" lon="5.62128">
        <ele>1159</ele>
        <time>2014-06-22T07:00:35Z</time>
      </trkpt>
      <trkpt lat="45.16129" lon="5.62032">
        <ele>1154.8</ele>
        <time>2014-06-22T07:00:52Z</time>
      </trkpt>
      <trkpt lat="45.16119" lon="5.62009">
        <ele>1154.6</ele>
        <time>2014-06-22T07:00:56Z</time>
      </trkpt>
      <trkpt lat="45.16104" lon="5.61972">
        <ele>1155.4</ele>
        <time>2014-06-22T07:01:02Z</time>
      </trkpt>
      <trkpt lat="45.16097" lon="5.61846">
        <ele>1159.4</ele>
        <time>2014-06-22T07:01:27Z</time>
      </trkpt>
      <trkpt lat="45.1604" lon="5.6177">
        <ele>1152</ele>
        <time>2014-06-22T07:01:55Z</time>
      </trkpt>
      <trkpt lat="45.15927" lon="5.61793">
        <ele>1148.7</ele>
        <time>2014-06-22T07:02:10Z</time>
      </trkpt>
      <trkpt lat="45.15867" lon="5.61812">
        <ele>1141</ele>
        <time>2014-06-22T07:02:18Z</time>
      </trkpt>
      <trkpt lat="45.15845" lon="5.61847">
        <ele>1141.9</ele>
        <time>2014-06-22T07:02:23Z</time>
      </trkpt>
      <trkpt lat="45.15799" lon="5.61946">
        <ele>1153</ele>
        <time>2014-06-22T07:02:34Z</time>
      </trkpt>
      <trkpt lat="45.15775" lon="5.61941">
        <ele>1148.2</ele>
        <time>2014-06-22T07:02:38Z</time>
      </trkpt>
      <trkpt lat="45.15742" lon="5.6193">
        <ele>1140.8</ele>
        <time>2014-06-22T07:02:44Z</time>
      </trkpt>
      <trkpt lat="45.15626" lon="5.6191">
        <ele>1134.7</ele>
        <time>2014-06-22T07:03:08Z</time>
      </trkpt>
      <trkpt lat="45.1557" lon="5.61905">
        <ele>1131.5</ele>
        <time>2014-06-22T07:03:15Z</time>
      </trkpt>
      <trkpt lat="45.15484" lon="5.61939">
        <ele>1123.7</ele>
        <time>2014-06-22T07:03:25Z</time>
      </trkpt>
      <trkpt lat="45.15449" lon="5.61939">
        <ele>1120</ele>
        <time>2014-06-22T07:03:29Z</time>
      </trkpt>
      <trkpt lat="45.15392" lon="5.61912">
        <ele>1111.6</ele>
        <time>2014-06-22T07:03:36Z</time>
      </trkpt>
      <trkpt lat="45.1536" lon="5.61876">
        <ele>1104.9</ele>
        <time>2014-06-22T07:03:41Z</time>
      </trkpt>
      <trkpt lat="45.153" lon="5.61859">
        <ele>1098.9</ele>
        <time>2014-06-22T07:03:48Z</time>
      </trkpt>
      <trkpt lat="45.15168" lon="5.61899">
        <ele>1088.2</ele>
        <time>2014-06-22T07:04:01Z</time>
      </trkpt>
      <trkpt lat="45.15099" lon="5.61932">
        <ele>1083.1</ele>
        <time>2014-06-22T07:04:09Z</time>
      </trkpt>
      <trkpt lat="45.15026" lon="5.6198">
        <ele>1084.8</ele>
        <time>2014-06-22T07:04:18Z</time>
      </trkpt>
      <trkpt lat="45.14998" lon="5.61974">
        <ele>1080.3</ele>
        <time>2014-06-22T07:04:22Z</time>
      </trkpt>
      <trkpt lat="45.14957" lon="5.6197">
        <ele>1073.6</ele>
        <time>2014-06-22T07:04:28Z</time>
      </trkpt>
      <trkpt lat="45.14898" lon="5.61977">
        <ele>1068.1</ele>
        <time>2014-06-22T07:04:36Z</time>
      </trkpt>
      <trkpt lat="45.14806" lon="5.61989">
        <ele>1062.7</ele>
        <time>2014-06-22T07:04:51Z</time>
      </trkpt>
      <trkpt lat="45.14753" lon="5.62003">
        <ele>1063.2</ele>
        <time>2014-06-22T07:05:00Z</time>
      </trkpt>
      <trkpt lat="45.14727" lon="5.61984">
        <ele>1059.3</ele>
        <time>2014-06-22T07:05:04Z</time>
      </trkpt>
      <trkpt lat="45.14706" lon="5.61961">
        <ele>1054.4</ele>
        <time>2014-06-22T07:05:08Z</time>
      </trkpt>
      <trkpt lat="45.14636" lon="5.61939">
        <ele>1054</ele>
        <time>2014-06-22T07:05:17Z</time>
      </trkpt>
      <trkpt lat="45.14579" lon="5.61927">
        <ele>1057</ele>
        <time>2014-06-22T07:05:23Z</time>
      </trkpt>
      <trkpt lat="45.14557" lon="5.619">
        <ele>1056.5</ele>
        <time>2014-06-22T07:05:27Z</time>
      </trkpt>
      <trkpt lat="45.14535" lon="5.61828">
        <ele>1053.4</ele>
        <time>2014-06-22T07:05:35Z</time>
      </trkpt>
      <trkpt lat="45.14542" lon="5.61779">
        <ele>1049.3</ele>
        <time>2014-06-22T07:05:39Z</time>
      </trkpt>
      <trkpt lat="45.1455" lon="5.61681">
        <ele>1043.2</ele>
        <time>2014-06-22T07:05:50Z</time>
      </trkpt>
      <trkpt lat="45.14504" lon="5.61591">
        <ele>1046.4</ele>
        <time>2014-06-22T07:06:03Z</time>
      </trkpt>
      <trkpt lat="45.14488" lon="5.61546">
        <ele>1045.1</ele>
        <time>2014-06-22T07:06:10Z</time>
      </trkpt>
      <trkpt lat="45.14483" lon="5.61528">
        <ele>1045.1</ele>
        <time>2014-06-22T07:06:14Z</time>
      </trkpt>
      <trkpt lat="45.14474" lon="5.61496">
        <ele>1046.7</ele>
        <time>2014-06-22T07:06:26Z</time>
      </trkpt>
      <trkpt lat="45.1446" lon="5.61444">
        <ele>1060.8</ele>
        <time>2014-06-22T07:06:44Z</time>
      </trkpt>
      <trkpt lat="45.14465" lon="5.61426">
        <ele>1061.8</ele>
        <time>2014-06-22T07:06:49Z</time>
      </trkpt>
      <trkpt lat="45.14472" lon="5.61413">
        <ele>1061.8</ele>
        <time>2014-06-22T07:06:53Z</time>
      </trkpt>
      <trkpt lat="45.14481" lon="5.61403">
        <ele>1060.5</ele>
        <time>2014-06-22T07:06:57Z</time>
      </trkpt>
      <trkpt lat="45.14495" lon="5.6138">
        <ele>1059.4</ele>
        <time>2014-06-22T07:07:07Z</time>
      </trkpt>
      <trkpt lat="45.14498" lon="5.61372">
        <ele>1059.7</ele>
        <time>2014-06-22T07:07:11Z</time>
      </trkpt>
      <trkpt lat="45.14538" lon="5.61324">
        <ele>1062.5</ele>
        <time>2014-06-22T07:07:36Z</time>
      </trkpt>
      <trkpt lat="45.14585" lon="5.61212">
        <ele>1071.5</ele>
        <time>2014-06-22T07:08:15Z</time>
      </trkpt>
      <trkpt lat="45.14585" lon="5.61202">
        <ele>1073.4</ele>
        <time>2014-06-22T07:08:19Z</time>
      </trkpt>
      <trkpt lat="45.14597" lon="5.61151">
        <ele>1078.3</ele>
        <time>2014-06-22T07:08:49Z</time>
      </trkpt>
      <trkpt lat="45.14624" lon="5.61112">
        <ele>1075</ele>
        <time>2014-06-22T07:09:10Z</time>
      </trkpt>
      <trkpt lat="45.14633" lon="5.61077">
        <ele>1074.3</ele>
        <time>2014-06-22T07:09:25Z</time>
      </trkpt>
      <trkpt lat="45.14627" lon="5.6107">
        <ele>1075.2</ele>
        <time>2014-06-22T07:09:29Z</time>
      </trkpt>
      <trkpt lat="45.14561" lon="5.61047">
        <ele>1086.7</ele>
        <time>2014-06-22T07:09:57Z</time>
      </trkpt>
      <trkpt lat="45.14435" lon="5.61009">
        <ele>1104.1</ele>
        <time>2014-06-22T07:10:44Z</time>
      </trkpt>
      <trkpt lat="45.144" lon="5.60997">
        <ele>1111.2</ele>
        <time>2014-06-22T07:11:05Z</time>
      </trkpt>
      <trkpt lat="45.14442" lon="5.60899">
        <ele>1116</ele>
        <time>2014-06-22T07:11:49Z</time>
      </trkpt>
      <trkpt lat="45.1452" lon="5.60808">
        <ele>1110.1</ele>
        <time>2014-06-22T07:12:39Z</time>
      </trkpt>
      <trkpt lat="45.14544" lon="5.6075">
        <ele>1112.8</ele>
        <time>2014-06-22T07:13:06Z</time>
      </trkpt>
      <trkpt lat="45.14535" lon="5.60742">
        <ele>1111.1</ele>
        <time>2014-06-22T07:13:10Z</time>
      </trkpt>
      <trkpt lat="45.14504" lon="5.60732">
        <ele>1106.2</ele>
        <time>2014-06-22T07:13:18Z</time>
      </trkpt>
      <trkpt lat="45.14457" lon="5.60701">
        <ele>1106.5</ele>
        <time>2014-06-22T07:13:27Z</time>
      </trkpt>
      <trkpt lat="45.14398" lon="5.6066">
        <ele>1101.8</ele>
        <time>2014-06-22T07:13:36Z</time>
      </trkpt>
      <trkpt lat="45.14324" lon="5.60681">
        <ele>1102.9</ele>
        <time>2014-06-22T07:13:51Z</time>
      </trkpt>
      <trkpt lat="45.14227" lon="5.60707">
        <ele>1105.9</ele>
        <time>2014-06-22T07:14:17Z</time>
      </trkpt>
      <trkpt lat="45.14175" lon="5.60694">
        <ele>1105</ele>
        <time>2014-06-22T07:14:30Z</time>
      </trkpt>
      <trkpt lat="45.14164" lon="5.60624">
        <ele>1092.9</ele>
        <time>2014-06-22T07:14:44Z</time>
      </trkpt>
      <trkpt lat="45.14167" lon="5.60567">
        <ele>1085.4</ele>
        <time>2014-06-22T07:14:51Z</time>
      </trkpt>
      <trkpt lat="45.14157" lon="5.60531">
        <ele>1082.3</ele>
        <time>2014-06-22T07:14:55Z</time>
      </trkpt>
      <trkpt lat="45.14133" lon="5.60478">
        <ele>1078.9</ele>
        <time>2014-06-22T07:15:01Z</time>
      </trkpt>
      <trkpt lat="45.14078" lon="5.60398">
        <ele>1072.4</ele>
        <time>2014-06-22T07:15:15Z</time>
      </trkpt>
      <trkpt lat="45.14038" lon="5.60336">
        <ele>1066.6</ele>
        <time>2014-06-22T07:15:26Z</time>
      </trkpt>
      <trkpt lat="45.14021" lon="5.60302">
        <ele>1062.4</ele>
        <time>2014-06-22T07:15:32Z</time>
      </trkpt>
      <trkpt lat="45.13998" lon="5.60233">
        <ele>1054.9</ele>
        <time>2014-06-22T07:15:40Z</time>
      </trkpt>
      <trkpt lat="45.13962" lon="5.60175">
        <ele>1052.4</ele>
        <time>2014-06-22T07:15:47Z</time>
      </trkpt>
      <trkpt lat="45.13929" lon="5.60126">
        <ele>1045.9</ele>
        <time>2014-06-22T07:15:53Z</time>
      </trkpt>
      <trkpt lat="45.13881" lon="5.601">
        <ele>1036.3</ele>
        <time>2014-06-22T07:15:59Z</time>
      </trkpt>
      <trkpt lat="45.13752" lon="5.60055">
        <ele>1021.8</ele>
        <time>2014-06-22T07:16:15Z</time>
      </trkpt>
      <trkpt lat="45.13712" lon="5.60051">
        <ele>1020.9</ele>
        <time>2014-06-22T07:16:23Z</time>
      </trkpt>
      <trkpt lat="45.13677" lon="5.59988">
        <ele>1018.4</ele>
        <time>2014-06-22T07:16:32Z</time>
      </trkpt>
      <trkpt lat="45.13663" lon="5.59953">
        <ele>1020.7</ele>
        <time>2014-06-22T07:16:39Z</time>
      </trkpt>
      <trkpt lat="45.13646" lon="5.59921">
        <ele>1024</ele>
        <time>2014-06-22T07:16:47Z</time>
      </trkpt>
      <trkpt lat="45.13634" lon="5.59914">
        <ele>1025.5</ele>
        <time>2014-06-22T07:16:51Z</time>
      </trkpt>
      <trkpt lat="45.13611" lon="5.5988">
        <ele>1027.5</ele>
        <time>2014-06-22T07:17:15Z</time>
      </trkpt>
      <trkpt lat="45.13574" lon="5.5982">
        <ele>1028.1</ele>
        <time>2014-06-22T07:17:40Z</time>
      </trkpt>
      <trkpt lat="45.1343" lon="5.59691">
        <ele>1020.5</ele>
        <time>2014-06-22T07:18:09Z</time>
      </trkpt>
      <trkpt lat="45.13376" lon="5.59676">
        <ele>1018.4</ele>
        <time>2014-06-22T07:18:16Z</time>
      </trkpt>
      <trkpt lat="45.13331" lon="5.59669">
        <ele>1017.1</ele>
        <time>2014-06-22T07:18:21Z</time>
      </trkpt>
      <trkpt lat="45.13271" lon="5.59604">
        <ele>1022</ele>
        <time>2014-06-22T07:18:34Z</time>
      </trkpt>
      <trkpt lat="45.13171" lon="5.59559">
        <ele>1023.3</ele>
        <time>2014-06-22T07:19:04Z</time>
      </trkpt>
      <trkpt lat="45.13145" lon="5.59553">
        <ele>1022</ele>
        <time>2014-06-22T07:19:11Z</time>
      </trkpt>
      <trkpt lat="45.13078" lon="5.59544">
        <ele>1019.1</ele>
        <time>2014-06-22T07:19:27Z</time>
      </trkpt>
      <trkpt lat="45.13013" lon="5.59538">
        <ele>1019.9</ele>
        <time>2014-06-22T07:19:39Z</time>
      </trkpt>
      <trkpt lat="45.12954" lon="5.59511">
        <ele>1023.1</ele>
        <time>2014-06-22T07:19:54Z</time>
      </trkpt>
      <trkpt lat="45.12914" lon="5.59481">
        <ele>1022.1</ele>
        <time>2014-06-22T07:20:07Z</time>
      </trkpt>
      <trkpt lat="45.12921" lon="5.59459">
        <ele>1020.1</ele>
        <time>2014-06-22T07:20:11Z</time>
      </trkpt>
      <trkpt lat="45.12964" lon="5.59344">
        <ele>1016</ele>
        <time>2014-06-22T07:20:29Z</time>
      </trkpt>
      <trkpt lat="45.12965" lon="5.59314">
        <ele>1014.9</ele>
        <time>2014-06-22T07:20:35Z</time>
      </trkpt>
      <trkpt lat="45.12954" lon="5.59275">
        <ele>1011.7</ele>
        <time>2014-06-22T07:20:49Z</time>
      </trkpt>
      <trkpt lat="45.12928" lon="5.59294">
        <ele>1009.5</ele>
        <time>2014-06-22T07:21:00Z</time>
      </trkpt>
      <trkpt lat="45.12911" lon="5.59272">
        <ele>1008</ele>
        <time>2014-06-22T07:21:04Z</time>
      </trkpt>
      <trkpt lat="45.12883" lon="5.5922">
        <ele>1013.1</ele>
        <time>2014-06-22T07:21:19Z</time>
      </trkpt>
      <trkpt lat="45.12875" lon="5.59149">
        <ele>1015.8</ele>
        <time>2014-06-22T07:21:53Z</time>
      </trkpt>
      <trkpt lat="45.12846" lon="5.59102">
        <ele>1018.2</ele>
        <time>2014-06-22T07:22:14Z</time>
      </trkpt>
      <trkpt lat="45.12819" lon="5.59074">
        <ele>1019.1</ele>
        <time>2014-06-22T07:22:30Z</time>
      </trkpt>
      <trkpt lat="45.12809" lon="5.59061">
        <ele>1019.3</ele>
        <time>2014-06-22T07:22:35Z</time>
      </trkpt>
      <trkpt lat="45.12802" lon="5.59039">
        <ele>1019.4</ele>
        <time>2014-06-22T07:22:42Z</time>
      </trkpt>
      <trkpt lat="45.1282" lon="5.58889">
        <ele>1016.6</ele>
        <time>2014-06-22T07:23:07Z</time>
      </trkpt>
      <trkpt lat="45.12812" lon="5.58874">
        <ele>1016.9</ele>
        <time>2014-06-22T07:23:11Z</time>
      </trkpt>
      <trkpt lat="45.1279" lon="5.58874">
        <ele>1017.8</ele>
        <time>2014-06-22T07:24:13Z</time>
      </trkpt>
      <trkpt lat="45.12787" lon="5.58859">
        <ele>1017.8</ele>
        <time>2014-06-22T07:25:38Z</time>
      </trkpt>
      <trkpt lat="45.1277" lon="5.5886">
        <ele>1018.5</ele>
        <time>2014-06-22T07:25:56Z</time>
      </trkpt>
      <trkpt lat="45.12771" lon="5.58825">
        <ele>1018.1</ele>
        <time>2014-06-22T07:26:23Z</time>
      </trkpt>
      <trkpt lat="45.12895" lon="5.58681">
        <ele>1014.5</ele>
        <time>2014-06-22T07:26:47Z</time>
      </trkpt>
      <trkpt lat="45.12917" lon="5.58593">
        <ele>1011.3</ele>
        <time>2014-06-22T07:26:56Z</time>
      </trkpt>
      <trkpt lat="45.1296" lon="5.58424">
        <ele>1010.1</ele>
        <time>2014-06-22T07:27:13Z</time>
      </trkpt>
      <trkpt lat="45.12991" lon="5.5832">
        <ele>1007</ele>
        <time>2014-06-22T07:27:26Z</time>
      </trkpt>
      <trkpt lat="45.13019" lon="5.58241">
        <ele>1005.7</ele>
        <time>2014-06-22T07:27:36Z</time>
      </trkpt>
      <trkpt lat="45.13038" lon="5.58217">
        <ele>1005.2</ele>
        <time>2014-06-22T07:27:40Z</time>
      </trkpt>
      <trkpt lat="45.13062" lon="5.58207">
        <ele>1004.5</ele>
        <time>2014-06-22T07:27:44Z</time>
      </trkpt>
      <trkpt lat="45.13101" lon="5.58179">
        <ele>1003.2</ele>
        <time>2014-06-22T07:27:51Z</time>
      </trkpt>
      <trkpt lat="45.13109" lon="5.58147">
        <ele>1004.3</ele>
        <time>2014-06-22T07:27:55Z</time>
      </trkpt>
      <trkpt lat="45.13087" lon="5.58124">
        <ele>1004.8</ele>
        <time>2014-06-22T07:27:59Z</time>
      </trkpt>
      <trkpt lat="45.13063" lon="5.58094">
        <ele>1005.7</ele>
        <time>2014-06-22T07:28:04Z</time>
      </trkpt>
      <trkpt lat="45.13063" lon="5.58058">
        <ele>1008.6</ele>
        <time>2014-06-22T07:28:08Z</time>
      </trkpt>
      <trkpt lat="45.13063" lon="5.58027">
        <ele>1011.8</ele>
        <time>2014-06-22T07:28:12Z</time>
      </trkpt>
      <trkpt lat="45.13056" lon="5.58003">
        <ele>1013.4</ele>
        <time>2014-06-22T07:28:16Z</time>
      </trkpt>
      <trkpt lat="45.12939" lon="5.57861">
        <ele>1024.7</ele>
        <time>2014-06-22T07:29:05Z</time>
      </trkpt>
      <trkpt lat="45.12832" lon="5.57737">
        <ele>1033.3</ele>
        <time>2014-06-22T07:29:52Z</time>
      </trkpt>
      <trkpt lat="45.12754" lon="5.57624">
        <ele>1043</ele>
        <time>2014-06-22T07:30:33Z</time>
      </trkpt>
      <trkpt lat="45.12711" lon="5.57573">
        <ele>1052.9</ele>
        <time>2014-06-22T07:30:54Z</time>
      </trkpt>
      <trkpt lat="45.12702" lon="5.57568">
        <ele>1051.8</ele>
        <time>2014-06-22T07:30:58Z</time>
      </trkpt>
      <trkpt lat="45.12678" lon="5.57554">
        <ele>1050.2</ele>
        <time>2014-06-22T07:31:08Z</time>
      </trkpt>
      <trkpt lat="45.12669" lon="5.57547">
        <ele>1049.8</ele>
        <time>2014-06-22T07:31:12Z</time>
      </trkpt>
      <trkpt lat="45.12613" lon="5.57461">
        <ele>1056.4</ele>
        <time>2014-06-22T07:31:43Z</time>
      </trkpt>
      <trkpt lat="45.12564" lon="5.57414">
        <ele>1057.2</ele>
        <time>2014-06-22T07:32:08Z</time>
      </trkpt>
      <trkpt lat="45.12561" lon="5.57404">
        <ele>1060.1</ele>
        <time>2014-06-22T07:32:12Z</time>
      </trkpt>
      <trkpt lat="45.12558" lon="5.57391">
        <ele>1063.7</ele>
        <time>2014-06-22T07:32:16Z</time>
      </trkpt>
      <trkpt lat="45.12541" lon="5.57372">
        <ele>1065.8</ele>
        <time>2014-06-22T07:32:29Z</time>
      </trkpt>
      <trkpt lat="45.12532" lon="5.57372">
        <ele>1063.5</ele>
        <time>2014-06-22T07:32:33Z</time>
      </trkpt>
      <trkpt lat="45.12524" lon="5.5737">
        <ele>1062</ele>
        <time>2014-06-22T07:32:37Z</time>
      </trkpt>
      <trkpt lat="45.12513" lon="5.57363">
        <ele>1061.7</ele>
        <time>2014-06-22T07:32:44Z</time>
      </trkpt>
      <trkpt lat="45.12472" lon="5.57314">
        <ele>1070.5</ele>
        <time>2014-06-22T07:33:20Z</time>
      </trkpt>
      <trkpt lat="45.12448" lon="5.57262">
        <ele>1085.6</ele>
        <time>2014-06-22T07:33:49Z</time>
      </trkpt>
      <trkpt lat="45.12436" lon="5.57222">
        <ele>1099</ele>
        <time>2014-06-22T07:34:06Z</time>
      </trkpt>
      <trkpt lat="45.124" lon="5.57149">
        <ele>1119.8</ele>
        <time>2014-06-22T07:34:43Z</time>
      </trkpt>
      <trkpt lat="45.12346" lon="5.5715">
        <ele>1104.5</ele>
        <time>2014-06-22T07:35:04Z</time>
      </trkpt>
      <trkpt lat="45.12344" lon="5.5716">
        <ele>1098.1</ele>
        <time>2014-06-22T07:35:41Z</time>
      </trkpt>
      <trkpt lat="45.12371" lon="5.57157">
        <ele>1108</ele>
        <time>2014-06-22T07:35:58Z</time>
      </trkpt>
      <trkpt lat="45.12435" lon="5.57186">
        <ele>1112.9</ele>
        <time>2014-06-22T07:36:42Z</time>
      </trkpt>
      <trkpt lat="45.12404" lon="5.57151">
        <ele>1120.3</ele>
        <time>2014-06-22T07:37:13Z</time>
      </trkpt>
      <trkpt lat="45.1235" lon="5.57117">
        <ele>1124.1</ele>
        <time>2014-06-22T07:37:42Z</time>
      </trkpt>
      <trkpt lat="45.12297" lon="5.57104">
        <ele>1117.8</ele>
        <time>2014-06-22T07:38:22Z</time>
      </trkpt>
      <trkpt lat="45.12281" lon="5.57092">
        <ele>1118.9</ele>
        <time>2014-06-22T07:38:39Z</time>
      </trkpt>
      <trkpt lat="45.12243" lon="5.5705">
        <ele>1128.7</ele>
        <time>2014-06-22T07:39:18Z</time>
      </trkpt>
      <trkpt lat="45.12214" lon="5.57054">
        <ele>1122.3</ele>
        <time>2014-06-22T07:40:03Z</time>
      </trkpt>
      <trkpt lat="45.12199" lon="5.57033">
        <ele>1130.3</ele>
        <time>2014-06-22T07:40:45Z</time>
      </trkpt>
      <trkpt lat="45.12168" lon="5.5701">
        <ele>1137</ele>
        <time>2014-06-22T07:41:18Z</time>
      </trkpt>
      <trkpt lat="45.12122" lon="5.56975">
        <ele>1144</ele>
        <time>2014-06-22T07:41:58Z</time>
      </trkpt>
      <trkpt lat="45.12106" lon="5.56955">
        <ele>1150.3</ele>
        <time>2014-06-22T07:42:21Z</time>
      </trkpt>
      <trkpt lat="45.1209" lon="5.56921">
        <ele>1162.5</ele>
        <time>2014-06-22T07:42:45Z</time>
      </trkpt>
      <trkpt lat="45.12053" lon="5.5689">
        <ele>1163.5</ele>
        <time>2014-06-22T07:43:17Z</time>
      </trkpt>
      <trkpt lat="45.12033" lon="5.56841">
        <ele>1171.2</ele>
        <time>2014-06-22T07:43:59Z</time>
      </trkpt>
      <trkpt lat="45.12074" lon="5.56825">
        <ele>1181.8</ele>
        <time>2014-06-22T07:44:54Z</time>
      </trkpt>
      <trkpt lat="45.12109" lon="5.56805">
        <ele>1189.5</ele>
        <time>2014-06-22T07:45:31Z</time>
      </trkpt>
      <trkpt lat="45.12148" lon="5.568">
        <ele>1199</ele>
        <time>2014-06-22T07:46:34Z</time>
      </trkpt>
      <trkpt lat="45.12184" lon="5.56791">
        <ele>1207.3</ele>
        <time>2014-06-22T07:47:34Z</time>
      </trkpt>
      <trkpt lat="45.12225" lon="5.56792">
        <ele>1216.5</ele>
        <time>2014-06-22T07:48:11Z</time>
      </trkpt>
      <trkpt lat="45.12275" lon="5.56784">
        <ele>1227.1</ele>
        <time>2014-06-22T07:49:02Z</time>
      </trkpt>
      <trkpt lat="45.12315" lon="5.56778">
        <ele>1235.4</ele>
        <time>2014-06-22T07:49:46Z</time>
      </trkpt>
      <trkpt lat="45.12344" lon="5.56803">
        <ele>1242.7</ele>
        <time>2014-06-22T07:50:53Z</time>
      </trkpt>
      <trkpt lat="45.12368" lon="5.56826">
        <ele>1248.6</ele>
        <time>2014-06-22T07:51:26Z</time>
      </trkpt>
      <trkpt lat="45.12393" lon="5.5685">
        <ele>1249.1</ele>
        <time>2014-06-22T07:51:51Z</time>
      </trkpt>
      <trkpt lat="45.12427" lon="5.56857">
        <ele>1254.2</ele>
        <time>2014-06-22T07:52:19Z</time>
      </trkpt>
      <trkpt lat="45.12486" lon="5.56876">
        <ele>1262.5</ele>
        <time>2014-06-22T07:53:13Z</time>
      </trkpt>
      <trkpt lat="45.12518" lon="5.56877">
        <ele>1270.1</ele>
        <time>2014-06-22T07:53:44Z</time>
      </trkpt>
      <trkpt lat="45.12567" lon="5.56897">
        <ele>1282.5</ele>
        <time>2014-06-22T07:54:31Z</time>
      </trkpt>
      <trkpt lat="45.12612" lon="5.56924">
        <ele>1291.4</ele>
        <time>2014-06-22T07:55:14Z</time>
      </trkpt>
      <trkpt lat="45.12626" lon="5.56935">
        <ele>1291</ele>
        <time>2014-06-22T07:55:29Z</time>
      </trkpt>
      <trkpt lat="45.12648" lon="5.5694">
        <ele>1294.8</ele>
        <time>2014-06-22T07:56:33Z</time>
      </trkpt>
      <trkpt lat="45.1269" lon="5.56951">
        <ele>1302</ele>
        <time>2014-06-22T07:57:11Z</time>
      </trkpt>
      <trkpt lat="45.12753" lon="5.56934">
        <ele>1318</ele>
        <time>2014-06-22T07:58:12Z</time>
      </trkpt>
      <trkpt lat="45.1278" lon="5.56933">
        <ele>1322.9</ele>
        <time>2014-06-22T07:58:33Z</time>
      </trkpt>
      <trkpt lat="45.12809" lon="5.56936">
        <ele>1327.9</ele>
        <time>2014-06-22T07:58:57Z</time>
      </trkpt>
      <trkpt lat="45.12867" lon="5.56956">
        <ele>1337.8</ele>
        <time>2014-06-22T07:59:44Z</time>
      </trkpt>
      <trkpt lat="45.12918" lon="5.56962">
        <ele>1346.6</ele>
        <time>2014-06-22T08:00:22Z</time>
      </trkpt>
      <trkpt lat="45.12962" lon="5.56979">
        <ele>1354.3</ele>
        <time>2014-06-22T08:01:00Z</time>
      </trkpt>
      <trkpt lat="45.13" lon="5.57002">
        <ele>1362</ele>
        <time>2014-06-22T08:01:57Z</time>
      </trkpt>
      <trkpt lat="45.13024" lon="5.5702">
        <ele>1364.2</ele>
        <time>2014-06-22T08:02:24Z</time>
      </trkpt>
      <trkpt lat="45.13034" lon="5.57026">
        <ele>1365.7</ele>
        <time>2014-06-22T08:02:35Z</time>
      </trkpt>
      <trkpt lat="45.13052" lon="5.57031">
        <ele>1368.5</ele>
        <time>2014-06-22T08:03:00Z</time>
      </trkpt>
      <trkpt lat="45.13068" lon="5.57042">
        <ele>1371.8</ele>
        <time>2014-06-22T08:03:16Z</time>
      </trkpt>
      <trkpt lat="45.13099" lon="5.57052">
        <ele>1377.5</ele>
        <time>2014-06-22T08:03:41Z</time>
      </trkpt>
      <trkpt lat="45.13116" lon="5.57055">
        <ele>1380</ele>
        <time>2014-06-22T08:03:52Z</time>
      </trkpt>
      <trkpt lat="45.13123" lon="5.57058">
        <ele>1381.3</ele>
        <time>2014-06-22T08:03:56Z</time>
      </trkpt>
      <trkpt lat="45.13138" lon="5.57066">
        <ele>1384.1</ele>
        <time>2014-06-22T08:04:23Z</time>
      </trkpt>
      <trkpt lat="45.13148" lon="5.57074">
        <ele>1386.4</ele>
        <time>2014-06-22T08:04:33Z</time>
      </trkpt>
      <trkpt lat="45.1316" lon="5.57078">
        <ele>1388.3</ele>
        <time>2014-06-22T08:04:43Z</time>
      </trkpt>
      <trkpt lat="45.13162" lon="5.57078">
        <ele>1388.6</ele>
        <time>2014-06-22T08:05:24Z</time>
      </trkpt>
      <trkpt lat="45.13178" lon="5.57084">
        <ele>1390.7</ele>
        <time>2014-06-22T08:06:49Z</time>
      </trkpt>
      <trkpt lat="45.13211" lon="5.5709">
        <ele>1392.6</ele>
        <time>2014-06-22T08:08:37Z</time>
      </trkpt>
      <trkpt lat="45.13241" lon="5.57116">
        <ele>1394.9</ele>
        <time>2014-06-22T08:09:08Z</time>
      </trkpt>
      <trkpt lat="45.13271" lon="5.57142">
        <ele>1397.3</ele>
        <time>2014-06-22T08:09:27Z</time>
      </trkpt>
      <trkpt lat="45.13276" lon="5.57146">
        <ele>1397.7</ele>
        <time>2014-06-22T08:09:31Z</time>
      </trkpt>
      <trkpt lat="45.13281" lon="5.57152">
        <ele>1398.2</ele>
        <time>2014-06-22T08:09:35Z</time>
      </trkpt>
      <trkpt lat="45.13287" lon="5.57156">
        <ele>1398.8</ele>
        <time>2014-06-22T08:09:39Z</time>
      </trkpt>
      <trkpt lat="45.1336" lon="5.57216">
        <ele>1402</ele>
        <time>2014-06-22T08:10:27Z</time>
      </trkpt>
      <trkpt lat="45.13367" lon="5.5722">
        <ele>1402.5</ele>
        <time>2014-06-22T08:10:31Z</time>
      </trkpt>
      <trkpt lat="45.1341" lon="5.57261">
        <ele>1404.2</ele>
        <time>2014-06-22T08:11:02Z</time>
      </trkpt>
      <trkpt lat="45.13417" lon="5.57264">
        <ele>1403.9</ele>
        <time>2014-06-22T08:11:06Z</time>
      </trkpt>
      <trkpt lat="45.13436" lon="5.57278">
        <ele>1401.7</ele>
        <time>2014-06-22T08:11:24Z</time>
      </trkpt>
      <trkpt lat="45.13447" lon="5.57283">
        <ele>1402</ele>
        <time>2014-06-22T08:11:33Z</time>
      </trkpt>
      <trkpt lat="45.13461" lon="5.57289">
        <ele>1403.2</ele>
        <time>2014-06-22T08:11:44Z</time>
      </trkpt>
      <trkpt lat="45.13524" lon="5.57309">
        <ele>1412.9</ele>
        <time>2014-06-22T08:12:22Z</time>
      </trkpt>
      <trkpt lat="45.13544" lon="5.5732">
        <ele>1416.2</ele>
        <time>2014-06-22T08:12:40Z</time>
      </trkpt>
      <trkpt lat="45.13553" lon="5.57325">
        <ele>1417.9</ele>
        <time>2014-06-22T08:12:48Z</time>
      </trkpt>
      <trkpt lat="45.1362" lon="5.57347">
        <ele>1422.3</ele>
        <time>2014-06-22T08:13:24Z</time>
      </trkpt>
      <trkpt lat="45.1367" lon="5.57378">
        <ele>1422.2</ele>
        <time>2014-06-22T08:13:49Z</time>
      </trkpt>
      <trkpt lat="45.13756" lon="5.57415">
        <ele>1432.4</ele>
        <time>2014-06-22T08:14:33Z</time>
      </trkpt>
      <trkpt lat="45.13816" lon="5.57406">
        <ele>1446.2</ele>
        <time>2014-06-22T08:15:27Z</time>
      </trkpt>
      <trkpt lat="45.13876" lon="5.57414">
        <ele>1458.9</ele>
        <time>2014-06-22T08:16:27Z</time>
      </trkpt>
      <trkpt lat="45.13927" lon="5.57431">
        <ele>1465.4</ele>
        <time>2014-06-22T08:17:49Z</time>
      </trkpt>
      <trkpt lat="45.13954" lon="5.57433">
        <ele>1471.4</ele>
        <time>2014-06-22T08:18:28Z</time>
      </trkpt>
      <trkpt lat="45.13996" lon="5.57437">
        <ele>1481.2</ele>
        <time>2014-06-22T08:19:17Z</time>
      </trkpt>
      <trkpt lat="45.14036" lon="5.57452">
        <ele>1485</ele>
        <time>2014-06-22T08:20:01Z</time>
      </trkpt>
      <trkpt lat="45.1407" lon="5.57462">
        <ele>1490</ele>
        <time>2014-06-22T08:20:33Z</time>
      </trkpt>
      <trkpt lat="45.14077" lon="5.57464">
        <ele>1491</ele>
        <time>2014-06-22T08:20:38Z</time>
      </trkpt>
      <trkpt lat="45.14084" lon="5.57466">
        <ele>1492.2</ele>
        <time>2014-06-22T08:20:43Z</time>
      </trkpt>
      <trkpt lat="45.14104" lon="5.57478">
        <ele>1494</ele>
        <time>2014-06-22T08:21:00Z</time>
      </trkpt>
      <trkpt lat="45.14189" lon="5.57496">
        <ele>1501.8</ele>
        <time>2014-06-22T08:21:52Z</time>
      </trkpt>
      <trkpt lat="45.14212" lon="5.5751">
        <ele>1503</ele>
        <time>2014-06-22T08:22:16Z</time>
      </trkpt>
      <trkpt lat="45.14216" lon="5.57515">
        <ele>1502.7</ele>
        <time>2014-06-22T08:22:20Z</time>
      </trkpt>
      <trkpt lat="45.14227" lon="5.57523">
        <ele>1503.2</ele>
        <time>2014-06-22T08:22:30Z</time>
      </trkpt>
      <trkpt lat="45.14229" lon="5.57528">
        <ele>1502.9</ele>
        <time>2014-06-22T08:22:34Z</time>
      </trkpt>
      <trkpt lat="45.14235" lon="5.57535">
        <ele>1502.9</ele>
        <time>2014-06-22T08:22:41Z</time>
      </trkpt>
      <trkpt lat="45.14258" lon="5.57549">
        <ele>1505.7</ele>
        <time>2014-06-22T08:23:04Z</time>
      </trkpt>
      <trkpt lat="45.14265" lon="5.57552">
        <ele>1506.6</ele>
        <time>2014-06-22T08:23:10Z</time>
      </trkpt>
      <trkpt lat="45.14278" lon="5.57557">
        <ele>1508.4</ele>
        <time>2014-06-22T08:23:22Z</time>
      </trkpt>
      <trkpt lat="45.14293" lon="5.5756">
        <ele>1510.7</ele>
        <time>2014-06-22T08:23:34Z</time>
      </trkpt>
      <trkpt lat="45.14321" lon="5.57568">
        <ele>1515.5</ele>
        <time>2014-06-22T08:23:52Z</time>
      </trkpt>
      <trkpt lat="45.1442" lon="5.5754">
        <ele>1529.4</ele>
        <time>2014-06-22T08:24:33Z</time>
      </trkpt>
      <trkpt lat="45.14483" lon="5.57527">
        <ele>1537.8</ele>
        <time>2014-06-22T08:25:16Z</time>
      </trkpt>
      <trkpt lat="45.14552" lon="5.57527">
        <ele>1544.9</ele>
        <time>2014-06-22T08:25:57Z</time>
      </trkpt>
      <trkpt lat="45.14576" lon="5.57558">
        <ele>1549.3</ele>
        <time>2014-06-22T08:26:19Z</time>
      </trkpt>
      <trkpt lat="45.14646" lon="5.57565">
        <ele>1555.9</ele>
        <time>2014-06-22T08:27:14Z</time>
      </trkpt>
      <trkpt lat="45.14683" lon="5.5757">
        <ele>1558.3</ele>
        <time>2014-06-22T08:27:44Z</time>
      </trkpt>
      <trkpt lat="45.14705" lon="5.57572">
        <ele>1558.9</ele>
        <time>2014-06-22T08:28:02Z</time>
      </trkpt>
      <trkpt lat="45.14781" lon="5.57579">
        <ele>1562.7</ele>
        <time>2014-06-22T08:28:49Z</time>
      </trkpt>
      <trkpt lat="45.14835" lon="5.5759">
        <ele>1567.9</ele>
        <time>2014-06-22T08:29:32Z</time>
      </trkpt>
      <trkpt lat="45.14842" lon="5.57595">
        <ele>1568.3</ele>
        <time>2014-06-22T08:30:02Z</time>
      </trkpt>
      <trkpt lat="45.14848" lon="5.57601">
        <ele>1568.7</ele>
        <time>2014-06-22T08:30:07Z</time>
      </trkpt>
      <trkpt lat="45.1486" lon="5.57621">
        <ele>1569.6</ele>
        <time>2014-06-22T08:30:22Z</time>
      </trkpt>
      <trkpt lat="45.14865" lon="5.57628">
        <ele>1570.1</ele>
        <time>2014-06-22T08:30:27Z</time>
      </trkpt>
      <trkpt lat="45.14871" lon="5.57637">
        <ele>1570.7</ele>
        <time>2014-06-22T08:30:31Z</time>
      </trkpt>
      <trkpt lat="45.14887" lon="5.57643">
        <ele>1572.5</ele>
        <time>2014-06-22T08:30:44Z</time>
      </trkpt>
      <trkpt lat="45.14935" lon="5.5766">
        <ele>1577.4</ele>
        <time>2014-06-22T08:31:14Z</time>
      </trkpt>
      <trkpt lat="45.15012" lon="5.57689">
        <ele>1578.9</ele>
        <time>2014-06-22T08:32:11Z</time>
      </trkpt>
      <trkpt lat="45.15043" lon="5.57687">
        <ele>1581.8</ele>
        <time>2014-06-22T08:32:29Z</time>
      </trkpt>
      <trkpt lat="45.15088" lon="5.57677">
        <ele>1586.5</ele>
        <time>2014-06-22T08:33:08Z</time>
      </trkpt>
      <trkpt lat="45.15161" lon="5.577">
        <ele>1599.8</ele>
        <time>2014-06-22T08:34:04Z</time>
      </trkpt>
      <trkpt lat="45.1523" lon="5.57729">
        <ele>1610.6</ele>
        <time>2014-06-22T08:34:49Z</time>
      </trkpt>
      <trkpt lat="45.15235" lon="5.57732">
        <ele>1611.4</ele>
        <time>2014-06-22T08:34:53Z</time>
      </trkpt>
      <trkpt lat="45.15269" lon="5.57751">
        <ele>1616.7</ele>
        <time>2014-06-22T08:35:19Z</time>
      </trkpt>
      <trkpt lat="45.153" lon="5.57757">
        <ele>1619.1</ele>
        <time>2014-06-22T08:35:44Z</time>
      </trkpt>
      <trkpt lat="45.15308" lon="5.57757">
        <ele>1619.8</ele>
        <time>2014-06-22T08:35:50Z</time>
      </trkpt>
      <trkpt lat="45.15342" lon="5.57774">
        <ele>1622.5</ele>
        <time>2014-06-22T08:36:16Z</time>
      </trkpt>
      <trkpt lat="45.154" lon="5.57794">
        <ele>1627.6</ele>
        <time>2014-06-22T08:37:00Z</time>
      </trkpt>
      <trkpt lat="45.15496" lon="5.57791">
        <ele>1631.4</ele>
        <time>2014-06-22T08:37:56Z</time>
      </trkpt>
      <trkpt lat="45.15565" lon="5.5786">
        <ele>1629.4</ele>
        <time>2014-06-22T08:39:19Z</time>
      </trkpt>
      <trkpt lat="45.15626" lon="5.57874">
        <ele>1634.1</ele>
        <time>2014-06-22T08:39:59Z</time>
      </trkpt>
      <trkpt lat="45.15678" lon="5.57864">
        <ele>1639.7</ele>
        <time>2014-06-22T08:40:58Z</time>
      </trkpt>
      <trkpt lat="45.15763" lon="5.57864">
        <ele>1643.3</ele>
        <time>2014-06-22T08:41:43Z</time>
      </trkpt>
      <trkpt lat="45.15814" lon="5.57889">
        <ele>1648.1</ele>
        <time>2014-06-22T08:42:23Z</time>
      </trkpt>
      <trkpt lat="45.15898" lon="5.57936">
        <ele>1651.7</ele>
        <time>2014-06-22T08:43:00Z</time>
      </trkpt>
      <trkpt lat="45.15973" lon="5.58003">
        <ele>1653.1</ele>
        <time>2014-06-22T08:43:41Z</time>
      </trkpt>
      <trkpt lat="45.16023" lon="5.58025">
        <ele>1654.9</ele>
        <time>2014-06-22T08:43:52Z</time>
      </trkpt>
      <trkpt lat="45.16098" lon="5.58038">
        <ele>1657.8</ele>
        <time>2014-06-22T08:44:15Z</time>
      </trkpt>
      <trkpt lat="45.16133" lon="5.58041">
        <ele>1658.4</ele>
        <time>2014-06-22T08:44:38Z</time>
      </trkpt>
      <trkpt lat="45.16214" lon="5.58054">
        <ele>1659</ele>
        <time>2014-06-22T08:45:16Z</time>
      </trkpt>
      <trkpt lat="45.16305" lon="5.5807">
        <ele>1658</ele>
        <time>2014-06-22T08:45:50Z</time>
      </trkpt>
      <trkpt lat="45.16387" lon="5.58117">
        <ele>1645.5</ele>
        <time>2014-06-22T08:46:22Z</time>
      </trkpt>
      <trkpt lat="45.16432" lon="5.58198">
        <ele>1645.4</ele>
        <time>2014-06-22T08:46:52Z</time>
      </trkpt>
      <trkpt lat="45.16566" lon="5.58276">
        <ele>1644.9</ele>
        <time>2014-06-22T08:47:45Z</time>
      </trkpt>
      <trkpt lat="45.16683" lon="5.58306">
        <ele>1640.6</ele>
        <time>2014-06-22T08:48:21Z</time>
      </trkpt>
      <trkpt lat="45.16759" lon="5.58319">
        <ele>1640.6</ele>
        <time>2014-06-22T08:48:44Z</time>
      </trkpt>
      <trkpt lat="45.16801" lon="5.58337">
        <ele>1644.6</ele>
        <time>2014-06-22T08:49:07Z</time>
      </trkpt>
      <trkpt lat="45.16896" lon="5.58356">
        <ele>1649.5</ele>
        <time>2014-06-22T08:50:07Z</time>
      </trkpt>
      <trkpt lat="45.16988" lon="5.58375">
        <ele>1646.9</ele>
        <time>2014-06-22T08:50:51Z</time>
      </trkpt>
      <trkpt lat="45.1704" lon="5.58352">
        <ele>1640.6</ele>
        <time>2014-06-22T08:51:17Z</time>
      </trkpt>
      <trkpt lat="45.17105" lon="5.5837">
        <ele>1626.8</ele>
        <time>2014-06-22T08:51:41Z</time>
      </trkpt>
      <trkpt lat="45.17171" lon="5.58395">
        <ele>1626</ele>
        <time>2014-06-22T08:52:21Z</time>
      </trkpt>
      <trkpt lat="45.17228" lon="5.58392">
        <ele>1637.9</ele>
        <time>2014-06-22T08:53:13Z</time>
      </trkpt>
      <trkpt lat="45.17255" lon="5.58394">
        <ele>1643.9</ele>
        <time>2014-06-22T08:55:03Z</time>
      </trkpt>
      <trkpt lat="45.17297" lon="5.58408">
        <ele>1653.5</ele>
        <time>2014-06-22T08:55:35Z</time>
      </trkpt>
      <trkpt lat="45.17335" lon="5.58454">
        <ele>1654.3</ele>
        <time>2014-06-22T08:56:33Z</time>
      </trkpt>
      <trkpt lat="45.17376" lon="5.58477">
        <ele>1662.9</ele>
        <time>2014-06-22T08:57:48Z</time>
      </trkpt>
      <trkpt lat="45.17411" lon="5.58509">
        <ele>1670.5</ele>
        <time>2014-06-22T08:58:30Z</time>
      </trkpt>
      <trkpt lat="45.17429" lon="5.58532">
        <ele>1668.2</ele>
        <time>2014-06-22T08:58:48Z</time>
      </trkpt>
      <trkpt lat="45.17451" lon="5.58546">
        <ele>1668.5</ele>
        <time>2014-06-22T08:59:04Z</time>
      </trkpt>
      <trkpt lat="45.17497" lon="5.58547">
        <ele>1676.5</ele>
        <time>2014-06-22T08:59:27Z</time>
      </trkpt>
      <trkpt lat="45.17563" lon="5.58586">
        <ele>1681.5</ele>
        <time>2014-06-22T09:00:02Z</time>
      </trkpt>
      <trkpt lat="45.17667" lon="5.58647">
        <ele>1671.5</ele>
        <time>2014-06-22T09:00:32Z</time>
      </trkpt>
      <trkpt lat="45.17769" lon="5.58641">
        <ele>1660.4</ele>
        <time>2014-06-22T09:00:54Z</time>
      </trkpt>
      <trkpt lat="45.1784" lon="5.58616">
        <ele>1658.1</ele>
        <time>2014-06-22T09:01:13Z</time>
      </trkpt>
      <trkpt lat="45.1788" lon="5.58582">
        <ele>1663.4</ele>
        <time>2014-06-22T09:01:28Z</time>
      </trkpt>
      <trkpt lat="45.17951" lon="5.58588">
        <ele>1656.9</ele>
        <time>2014-06-22T09:01:50Z</time>
      </trkpt>
      <trkpt lat="45.17992" lon="5.58599">
        <ele>1655.2</ele>
        <time>2014-06-22T09:02:09Z</time>
      </trkpt>
      <trkpt lat="45.18035" lon="5.58623">
        <ele>1658</ele>
        <time>2014-06-22T09:03:16Z</time>
      </trkpt>
      <trkpt lat="45.18063" lon="5.58648">
        <ele>1661.9</ele>
        <time>2014-06-22T09:03:38Z</time>
      </trkpt>
      <trkpt lat="45.18129" lon="5.58689">
        <ele>1658.5</ele>
        <time>2014-06-22T09:04:09Z</time>
      </trkpt>
      <trkpt lat="45.18228" lon="5.58748">
        <ele>1663.7</ele>
        <time>2014-06-22T09:04:50Z</time>
      </trkpt>
      <trkpt lat="45.18257" lon="5.5878">
        <ele>1661.7</ele>
        <time>2014-06-22T09:05:13Z</time>
      </trkpt>
      <trkpt lat="45.183" lon="5.58809">
        <ele>1667.2</ele>
        <time>2014-06-22T09:06:06Z</time>
      </trkpt>
      <trkpt lat="45.18305" lon="5.58809">
        <ele>1668.9</ele>
        <time>2014-06-22T09:08:20Z</time>
      </trkpt>
      <trkpt lat="45.18342" lon="5.58829">
        <ele>1677.5</ele>
        <time>2014-06-22T09:08:57Z</time>
      </trkpt>
      <trkpt lat="45.18372" lon="5.58874">
        <ele>1675.7</ele>
        <time>2014-06-22T09:09:27Z</time>
      </trkpt>
      <trkpt lat="45.18399" lon="5.5891">
        <ele>1679.9</ele>
        <time>2014-06-22T09:09:51Z</time>
      </trkpt>
      <trkpt lat="45.18447" lon="5.58958">
        <ele>1686.2</ele>
        <time>2014-06-22T09:10:34Z</time>
      </trkpt>
      <trkpt lat="45.18482" lon="5.59025">
        <ele>1690</ele>
        <time>2014-06-22T09:11:21Z</time>
      </trkpt>
      <trkpt lat="45.18508" lon="5.59054">
        <ele>1695.5</ele>
        <time>2014-06-22T09:12:00Z</time>
      </trkpt>
      <trkpt lat="45.18565" lon="5.59141">
        <ele>1698.5</ele>
        <time>2014-06-22T09:12:38Z</time>
      </trkpt>
      <trkpt lat="45.18644" lon="5.59243">
        <ele>1690.4</ele>
        <time>2014-06-22T09:13:24Z</time>
      </trkpt>
      <trkpt lat="45.18714" lon="5.59239">
        <ele>1691.8</ele>
        <time>2014-06-22T09:14:33Z</time>
      </trkpt>
      <trkpt lat="45.18802" lon="5.59171">
        <ele>1690.8</ele>
        <time>2014-06-22T09:15:09Z</time>
      </trkpt>
      <trkpt lat="45.18907" lon="5.59143">
        <ele>1685.1</ele>
        <time>2014-06-22T09:15:41Z</time>
      </trkpt>
      <trkpt lat="45.19009" lon="5.5914">
        <ele>1677.5</ele>
        <time>2014-06-22T09:16:01Z</time>
      </trkpt>
      <trkpt lat="45.19082" lon="5.59163">
        <ele>1669.2</ele>
        <time>2014-06-22T09:16:20Z</time>
      </trkpt>
      <trkpt lat="45.19164" lon="5.59195">
        <ele>1649.5</ele>
        <time>2014-06-22T09:16:38Z</time>
      </trkpt>
      <trkpt lat="45.19221" lon="5.59209">
        <ele>1641.7</ele>
        <time>2014-06-22T09:16:52Z</time>
      </trkpt>
      <trkpt lat="45.19234" lon="5.59232">
        <ele>1640.4</ele>
        <time>2014-06-22T09:17:45Z</time>
      </trkpt>
      <trkpt lat="45.19287" lon="5.59281">
        <ele>1635.1</ele>
        <time>2014-06-22T09:18:20Z</time>
      </trkpt>
      <trkpt lat="45.19325" lon="5.5934">
        <ele>1624.4</ele>
        <time>2014-06-22T09:18:33Z</time>
      </trkpt>
      <trkpt lat="45.19335" lon="5.59381">
        <ele>1619.2</ele>
        <time>2014-06-22T09:19:51Z</time>
      </trkpt>
      <trkpt lat="45.19234" lon="5.5937">
        <ele>1613</ele>
        <time>2014-06-22T09:20:33Z</time>
      </trkpt>
      <trkpt lat="45.19107" lon="5.59389">
        <ele>1598.2</ele>
        <time>2014-06-22T09:20:51Z</time>
      </trkpt>
      <trkpt lat="45.19044" lon="5.59386">
        <ele>1598.4</ele>
        <time>2014-06-22T09:21:03Z</time>
      </trkpt>
      <trkpt lat="45.18917" lon="5.59448">
        <ele>1592.4</ele>
        <time>2014-06-22T09:21:25Z</time>
      </trkpt>
      <trkpt lat="45.18833" lon="5.59544">
        <ele>1579.9</ele>
        <time>2014-06-22T09:21:46Z</time>
      </trkpt>
      <trkpt lat="45.18717" lon="5.59539">
        <ele>1573.8</ele>
        <time>2014-06-22T09:22:07Z</time>
      </trkpt>
      <trkpt lat="45.18572" lon="5.59517">
        <ele>1563.1</ele>
        <time>2014-06-22T09:22:26Z</time>
      </trkpt>
      <trkpt lat="45.1846" lon="5.59431">
        <ele>1559.1</ele>
        <time>2014-06-22T09:22:53Z</time>
      </trkpt>
      <trkpt lat="45.18372" lon="5.59298">
        <ele>1565</ele>
        <time>2014-06-22T09:23:23Z</time>
      </trkpt>
      <trkpt lat="45.18292" lon="5.59253">
        <ele>1561.6</ele>
        <time>2014-06-22T09:23:43Z</time>
      </trkpt>
      <trkpt lat="45.18236" lon="5.59192">
        <ele>1564.6</ele>
        <time>2014-06-22T09:24:00Z</time>
      </trkpt>
      <trkpt lat="45.18094" lon="5.59116">
        <ele>1558.2</ele>
        <time>2014-06-22T09:24:39Z</time>
      </trkpt>
      <trkpt lat="45.17987" lon="5.59025">
        <ele>1559.9</ele>
        <time>2014-06-22T09:25:09Z</time>
      </trkpt>
      <trkpt lat="45.17918" lon="5.59005">
        <ele>1570.6</ele>
        <time>2014-06-22T09:26:12Z</time>
      </trkpt>
      <trkpt lat="45.17845" lon="5.58986">
        <ele>1574.4</ele>
        <time>2014-06-22T09:27:05Z</time>
      </trkpt>
      <trkpt lat="45.17734" lon="5.58988">
        <ele>1581.2</ele>
        <time>2014-06-22T09:28:01Z</time>
      </trkpt>
      <trkpt lat="45.17632" lon="5.58932">
        <ele>1589.3</ele>
        <time>2014-06-22T09:28:49Z</time>
      </trkpt>
      <trkpt lat="45.17569" lon="5.58903">
        <ele>1588.9</ele>
        <time>2014-06-22T09:29:22Z</time>
      </trkpt>
      <trkpt lat="45.17455" lon="5.58835">
        <ele>1593</ele>
        <time>2014-06-22T09:29:59Z</time>
      </trkpt>
      <trkpt lat="45.17371" lon="5.58794">
        <ele>1593.6</ele>
        <time>2014-06-22T09:30:21Z</time>
      </trkpt>
      <trkpt lat="45.17248" lon="5.5873">
        <ele>1590.3</ele>
        <time>2014-06-22T09:30:58Z</time>
      </trkpt>
      <trkpt lat="45.17175" lon="5.58664">
        <ele>1586.5</ele>
        <time>2014-06-22T09:31:21Z</time>
      </trkpt>
      <trkpt lat="45.17139" lon="5.58672">
        <ele>1582.5</ele>
        <time>2014-06-22T09:31:58Z</time>
      </trkpt>
      <trkpt lat="45.17037" lon="5.58693">
        <ele>1572.9</ele>
        <time>2014-06-22T09:32:16Z</time>
      </trkpt>
      <trkpt lat="45.1694" lon="5.5867">
        <ele>1565.1</ele>
        <time>2014-06-22T09:32:33Z</time>
      </trkpt>
      <trkpt lat="45.16861" lon="5.58667">
        <ele>1555.1</ele>
        <time>2014-06-22T09:32:49Z</time>
      </trkpt>
      <trkpt lat="45.16821" lon="5.58656">
        <ele>1551.5</ele>
        <time>2014-06-22T09:33:04Z</time>
      </trkpt>
      <trkpt lat="45.16728" lon="5.5864">
        <ele>1542.7</ele>
        <time>2014-06-22T09:33:34Z</time>
      </trkpt>
      <trkpt lat="45.16687" lon="5.58644">
        <ele>1537.5</ele>
        <time>2014-06-22T09:33:44Z</time>
      </trkpt>
      <trkpt lat="45.16657" lon="5.58644">
        <ele>1533.6</ele>
        <time>2014-06-22T09:33:49Z</time>
      </trkpt>
      <trkpt lat="45.16635" lon="5.5865">
        <ele>1528.4</ele>
        <time>2014-06-22T09:33:53Z</time>
      </trkpt>
      <trkpt lat="45.16605" lon="5.58649">
        <ele>1523</ele>
        <time>2014-06-22T09:34:05Z</time>
      </trkpt>
      <trkpt lat="45.16583" lon="5.58656">
        <ele>1517.9</ele>
        <time>2014-06-22T09:34:21Z</time>
      </trkpt>
      <trkpt lat="45.16474" lon="5.58678">
        <ele>1498</ele>
        <time>2014-06-22T09:34:45Z</time>
      </trkpt>
      <trkpt lat="45.1643" lon="5.58701">
        <ele>1484.3</ele>
        <time>2014-06-22T09:35:00Z</time>
      </trkpt>
      <trkpt lat="45.16381" lon="5.58714">
        <ele>1472.7</ele>
        <time>2014-06-22T09:35:19Z</time>
      </trkpt>
      <trkpt lat="45.16325" lon="5.58724">
        <ele>1460.4</ele>
        <time>2014-06-22T09:35:34Z</time>
      </trkpt>
      <trkpt lat="45.1631" lon="5.58771">
        <ele>1449.1</ele>
        <time>2014-06-22T09:35:51Z</time>
      </trkpt>
      <trkpt lat="45.16349" lon="5.58834">
        <ele>1446.7</ele>
        <time>2014-06-22T09:36:26Z</time>
      </trkpt>
      <trkpt lat="45.16414" lon="5.58948">
        <ele>1432.3</ele>
        <time>2014-06-22T09:36:44Z</time>
      </trkpt>
      <trkpt lat="45.16487" lon="5.59067">
        <ele>1414.3</ele>
        <time>2014-06-22T09:36:59Z</time>
      </trkpt>
      <trkpt lat="45.16481" lon="5.59161">
        <ele>1410.7</ele>
        <time>2014-06-22T09:37:10Z</time>
      </trkpt>
      <trkpt lat="45.16426" lon="5.59292">
        <ele>1392.3</ele>
        <time>2014-06-22T09:37:26Z</time>
      </trkpt>
      <trkpt lat="45.16318" lon="5.59315">
        <ele>1375.1</ele>
        <time>2014-06-22T09:37:47Z</time>
      </trkpt>
      <trkpt lat="45.16263" lon="5.59291">
        <ele>1370.9</ele>
        <time>2014-06-22T09:37:58Z</time>
      </trkpt>
      <trkpt lat="45.16213" lon="5.59278">
        <ele>1361.3</ele>
        <time>2014-06-22T09:38:08Z</time>
      </trkpt>
      <trkpt lat="45.16151" lon="5.59237">
        <ele>1357.5</ele>
        <time>2014-06-22T09:38:21Z</time>
      </trkpt>
      <trkpt lat="45.16063" lon="5.59242">
        <ele>1329.4</ele>
        <time>2014-06-22T09:38:39Z</time>
      </trkpt>
      <trkpt lat="45.1601" lon="5.59233">
        <ele>1315.4</ele>
        <time>2014-06-22T09:39:02Z</time>
      </trkpt>
      <trkpt lat="45.16107" lon="5.5931">
        <ele>1319.1</ele>
        <time>2014-06-22T09:39:35Z</time>
      </trkpt>
      <trkpt lat="45.16169" lon="5.59422">
        <ele>1299.3</ele>
        <time>2014-06-22T09:39:51Z</time>
      </trkpt>
      <trkpt lat="45.16205" lon="5.59488">
        <ele>1289.8</ele>
        <time>2014-06-22T09:40:05Z</time>
      </trkpt>
      <trkpt lat="45.16308" lon="5.59593">
        <ele>1273.3</ele>
        <time>2014-06-22T09:40:24Z</time>
      </trkpt>
      <trkpt lat="45.16377" lon="5.5971">
        <ele>1255.8</ele>
        <time>2014-06-22T09:40:43Z</time>
      </trkpt>
      <trkpt lat="45.16384" lon="5.59722">
        <ele>1254.3</ele>
        <time>2014-06-22T09:41:29Z</time>
      </trkpt>
      <trkpt lat="45.1639" lon="5.59704">
        <ele>1259</ele>
        <time>2014-06-22T09:42:31Z</time>
      </trkpt>
      <trkpt lat="45.16396" lon="5.59678">
        <ele>1265.4</ele>
        <time>2014-06-22T09:42:37Z</time>
      </trkpt>
      <trkpt lat="45.16418" lon="5.59686">
        <ele>1266.8</ele>
        <time>2014-06-22T09:42:51Z</time>
      </trkpt>
      <trkpt lat="45.16492" lon="5.59815">
        <ele>1251.4</ele>
        <time>2014-06-22T09:43:23Z</time>
      </trkpt>
      <trkpt lat="45.16644" lon="5.59844">
        <ele>1264.1</ele>
        <time>2014-06-22T09:44:14Z</time>
      </trkpt>
      <trkpt lat="45.16692" lon="5.59842">
        <ele>1269</ele>
        <time>2014-06-22T09:44:22Z</time>
      </trkpt>
      <trkpt lat="45.16711" lon="5.59883">
        <ele>1256.5</ele>
        <time>2014-06-22T09:44:27Z</time>
      </trkpt>
      <trkpt lat="45.16735" lon="5.599">
        <ele>1252.4</ele>
        <time>2014-06-22T09:44:31Z</time>
      </trkpt>
      <trkpt lat="45.16771" lon="5.59918">
        <ele>1246.3</ele>
        <time>2014-06-22T09:44:36Z</time>
      </trkpt>
      <trkpt lat="45.16801" lon="5.59935">
        <ele>1241</ele>
        <time>2014-06-22T09:44:40Z</time>
      </trkpt>
      <trkpt lat="45.16833" lon="5.59937">
        <ele>1241.9</ele>
        <time>2014-06-22T09:44:44Z</time>
      </trkpt>
      <trkpt lat="45.16889" lon="5.59919">
        <ele>1254.6</ele>
        <time>2014-06-22T09:44:54Z</time>
      </trkpt>
      <trkpt lat="45.16883" lon="5.59951">
        <ele>1251.4</ele>
        <time>2014-06-22T09:44:58Z</time>
      </trkpt>
      <trkpt lat="45.16866" lon="5.59977">
        <ele>1244.3</ele>
        <time>2014-06-22T09:45:03Z</time>
      </trkpt>
      <trkpt lat="45.16814" lon="5.60102">
        <ele>1229.2</ele>
        <time>2014-06-22T09:45:54Z</time>
      </trkpt>
      <trkpt lat="45.1683" lon="5.60128">
        <ele>1233.3</ele>
        <time>2014-06-22T09:46:06Z</time>
      </trkpt>
      <trkpt lat="45.16838" lon="5.60135">
        <ele>1234.6</ele>
        <time>2014-06-22T09:46:10Z</time>
      </trkpt>
      <trkpt lat="45.16844" lon="5.60138">
        <ele>1235.8</ele>
        <time>2014-06-22T09:46:14Z</time>
      </trkpt>
      <trkpt lat="45.16887" lon="5.60153">
        <ele>1242.3</ele>
        <time>2014-06-22T09:46:37Z</time>
      </trkpt>
      <trkpt lat="45.16893" lon="5.60151">
        <ele>1243.7</ele>
        <time>2014-06-22T09:46:41Z</time>
      </trkpt>
      <trkpt lat="45.16973" lon="5.60181">
        <ele>1252.2</ele>
        <time>2014-06-22T09:47:24Z</time>
      </trkpt>
      <trkpt lat="45.16999" lon="5.60242">
        <ele>1241.8</ele>
        <time>2014-06-22T09:47:38Z</time>
      </trkpt>
      <trkpt lat="45.17018" lon="5.60293">
        <ele>1233.5</ele>
        <time>2014-06-22T09:47:49Z</time>
      </trkpt>
      <trkpt lat="45.17031" lon="5.60379">
        <ele>1222.5</ele>
        <time>2014-06-22T09:48:05Z</time>
      </trkpt>
      <trkpt lat="45.17049" lon="5.60408">
        <ele>1220.7</ele>
        <time>2014-06-22T09:48:12Z</time>
      </trkpt>
      <trkpt lat="45.17076" lon="5.60439">
        <ele>1215.9</ele>
        <time>2014-06-22T09:48:22Z</time>
      </trkpt>
      <trkpt lat="45.17156" lon="5.60489">
        <ele>1201.6</ele>
        <time>2014-06-22T09:48:43Z</time>
      </trkpt>
      <trkpt lat="45.17172" lon="5.60483">
        <ele>1202.1</ele>
        <time>2014-06-22T09:48:47Z</time>
      </trkpt>
      <trkpt lat="45.17197" lon="5.60476">
        <ele>1198.8</ele>
        <time>2014-06-22T09:49:01Z</time>
      </trkpt>
      <trkpt lat="45.17232" lon="5.60464">
        <ele>1196.1</ele>
        <time>2014-06-22T09:49:22Z</time>
      </trkpt>
      <trkpt lat="45.17265" lon="5.60474">
        <ele>1185</ele>
        <time>2014-06-22T09:49:32Z</time>
      </trkpt>
      <trkpt lat="45.17284" lon="5.60479">
        <ele>1179.7</ele>
        <time>2014-06-22T09:49:36Z</time>
      </trkpt>
      <trkpt lat="45.17329" lon="5.60481">
        <ele>1170.9</ele>
        <time>2014-06-22T09:49:45Z</time>
      </trkpt>
      <trkpt lat="45.17369" lon="5.60512">
        <ele>1162.4</ele>
        <time>2014-06-22T09:49:54Z</time>
      </trkpt>
      <trkpt lat="45.17378" lon="5.60549">
        <ele>1150.7</ele>
        <time>2014-06-22T09:50:00Z</time>
      </trkpt>
      <trkpt lat="45.17379" lon="5.6061">
        <ele>1131.8</ele>
        <time>2014-06-22T09:50:12Z</time>
      </trkpt>
      <trkpt lat="45.17382" lon="5.60647">
        <ele>1123.1</ele>
        <time>2014-06-22T09:50:24Z</time>
      </trkpt>
      <trkpt lat="45.17382" lon="5.60655">
        <ele>1121</ele>
        <time>2014-06-22T09:50:28Z</time>
      </trkpt>
      <trkpt lat="45.17407" lon="5.60711">
        <ele>1110.6</ele>
        <time>2014-06-22T09:50:49Z</time>
      </trkpt>
      <trkpt lat="45.17422" lon="5.6075">
        <ele>1101</ele>
        <time>2014-06-22T09:51:02Z</time>
      </trkpt>
      <trkpt lat="45.17439" lon="5.60794">
        <ele>1090.2</ele>
        <time>2014-06-22T09:51:26Z</time>
      </trkpt>
      <trkpt lat="45.17446" lon="5.60832">
        <ele>1079.4</ele>
        <time>2014-06-22T09:51:36Z</time>
      </trkpt>
      <trkpt lat="45.17451" lon="5.60865">
        <ele>1071.7</ele>
        <time>2014-06-22T09:51:45Z</time>
      </trkpt>
      <trkpt lat="45.17467" lon="5.60913">
        <ele>1061.5</ele>
        <time>2014-06-22T09:52:03Z</time>
      </trkpt>
      <trkpt lat="45.17464" lon="5.60927">
        <ele>1057.9</ele>
        <time>2014-06-22T09:52:28Z</time>
      </trkpt>
      <trkpt lat="45.17485" lon="5.61008">
        <ele>1042.9</ele>
        <time>2014-06-22T09:52:48Z</time>
      </trkpt>
      <trkpt lat="45.17503" lon="5.61035">
        <ele>1038.1</ele>
        <time>2014-06-22T09:52:52Z</time>
      </trkpt>
      <trkpt lat="45.1752" lon="5.61063">
        <ele>1022.5</ele>
        <time>2014-06-22T09:52:56Z</time>
      </trkpt>
      <trkpt lat="45.17532" lon="5.61097">
        <ele>1009.3</ele>
        <time>2014-06-22T09:53:02Z</time>
      </trkpt>
      <trkpt lat="45.17533" lon="5.61125">
        <ele>1004.6</ele>
        <time>2014-06-22T09:53:07Z</time>
      </trkpt>
      <trkpt lat="45.17534" lon="5.61133">
        <ele>1002.8</ele>
        <time>2014-06-22T09:53:11Z</time>
      </trkpt>
      <trkpt lat="45.17527" lon="5.61183">
        <ele>998.6</ele>
        <time>2014-06-22T09:53:26Z</time>
      </trkpt>
      <trkpt lat="45.17524" lon="5.61234">
        <ele>990</ele>
        <time>2014-06-22T09:53:57Z</time>
      </trkpt>
      <trkpt lat="45.17509" lon="5.61299">
        <ele>981.9</ele>
        <time>2014-06-22T09:54:13Z</time>
      </trkpt>
      <trkpt lat="45.17497" lon="5.61333">
        <ele>977.6</ele>
        <time>2014-06-22T09:54:21Z</time>
      </trkpt>
      <trkpt lat="45.17494" lon="5.61349">
        <ele>971.9</ele>
        <time>2014-06-22T09:54:25Z</time>
      </trkpt>
      <trkpt lat="45.175" lon="5.61348">
        <ele>973.1</ele>
        <time>2014-06-22T09:55:05Z</time>
      </trkpt>
      <trkpt lat="45.17508" lon="5.61343">
        <ele>971.1</ele>
        <time>2014-06-22T09:55:09Z</time>
      </trkpt>
      <trkpt lat="45.17529" lon="5.61327">
        <ele>965.3</ele>
        <time>2014-06-22T09:55:15Z</time>
      </trkpt>
      <trkpt lat="45.17564" lon="5.61289">
        <ele>956.9</ele>
        <time>2014-06-22T09:55:24Z</time>
      </trkpt>
      <trkpt lat="45.17578" lon="5.61253">
        <ele>958.1</ele>
        <time>2014-06-22T09:55:28Z</time>
      </trkpt>
      <trkpt lat="45.1758" lon="5.61214">
        <ele>963.4</ele>
        <time>2014-06-22T09:55:32Z</time>
      </trkpt>
      <trkpt lat="45.1759" lon="5.61193">
        <ele>963</ele>
        <time>2014-06-22T09:55:36Z</time>
      </trkpt>
      <trkpt lat="45.17632" lon="5.6109">
        <ele>963.7</ele>
        <time>2014-06-22T09:55:47Z</time>
      </trkpt>
      <trkpt lat="45.17656" lon="5.61071">
        <ele>957.6</ele>
        <time>2014-06-22T09:55:54Z</time>
      </trkpt>
      <trkpt lat="45.17627" lon="5.61129">
        <ele>960.4</ele>
        <time>2014-06-22T09:56:02Z</time>
      </trkpt>
      <trkpt lat="45.17624" lon="5.61222">
        <ele>949.1</ele>
        <time>2014-06-22T09:56:09Z</time>
      </trkpt>
      <trkpt lat="45.17629" lon="5.61298">
        <ele>936.5</ele>
        <time>2014-06-22T09:56:15Z</time>
      </trkpt>
      <trkpt lat="45.17627" lon="5.61392">
        <ele>925.9</ele>
        <time>2014-06-22T09:56:23Z</time>
      </trkpt>
      <trkpt lat="45.17633" lon="5.61515">
        <ele>912.9</ele>
        <time>2014-06-22T09:56:32Z</time>
      </trkpt>
      <trkpt lat="45.17631" lon="5.6167">
        <ele>882.3</ele>
        <time>2014-06-22T09:56:43Z</time>
      </trkpt>
      <trkpt lat="45.17598" lon="5.61752">
        <ele>869.2</ele>
        <time>2014-06-22T09:56:51Z</time>
      </trkpt>
      <trkpt lat="45.17594" lon="5.61787">
        <ele>864.3</ele>
        <time>2014-06-22T09:56:55Z</time>
      </trkpt>
      <trkpt lat="45.17584" lon="5.61818">
        <ele>859.8</ele>
        <time>2014-06-22T09:56:59Z</time>
      </trkpt>
      <trkpt lat="45.17588" lon="5.6184">
        <ele>858.2</ele>
        <time>2014-06-22T09:57:07Z</time>
      </trkpt>
      <trkpt lat="45.17612" lon="5.61841">
        <ele>858.7</ele>
        <time>2014-06-22T09:57:41Z</time>
      </trkpt>
      <trkpt lat="45.17646" lon="5.61829">
        <ele>860.9</ele>
        <time>2014-06-22T09:57:48Z</time>
      </trkpt>
      <trkpt lat="45.17659" lon="5.61843">
        <ele>859.4</ele>
        <time>2014-06-22T09:57:52Z</time>
      </trkpt>
      <trkpt lat="45.1772" lon="5.61895">
        <ele>855.3</ele>
        <time>2014-06-22T09:58:09Z</time>
      </trkpt>
      <trkpt lat="45.17796" lon="5.6189">
        <ele>860</ele>
        <time>2014-06-22T09:58:24Z</time>
      </trkpt>
      <trkpt lat="45.17897" lon="5.61937">
        <ele>857.7</ele>
        <time>2014-06-22T09:58:40Z</time>
      </trkpt>
      <trkpt lat="45.18034" lon="5.61961">
        <ele>851.1</ele>
        <time>2014-06-22T09:58:58Z</time>
      </trkpt>
      <trkpt lat="45.18069" lon="5.61985">
        <ele>846.3</ele>
        <time>2014-06-22T09:59:02Z</time>
      </trkpt>
      <trkpt lat="45.1815" lon="5.62049">
        <ele>842.8</ele>
        <time>2014-06-22T09:59:12Z</time>
      </trkpt>
      <trkpt lat="45.18184" lon="5.62038">
        <ele>844.5</ele>
        <time>2014-06-22T09:59:16Z</time>
      </trkpt>
      <trkpt lat="45.18216" lon="5.62043">
        <ele>846.1</ele>
        <time>2014-06-22T09:59:20Z</time>
      </trkpt>
      <trkpt lat="45.18235" lon="5.62091">
        <ele>838.6</ele>
        <time>2014-06-22T09:59:24Z</time>
      </trkpt>
      <trkpt lat="45.18306" lon="5.62157">
        <ele>826.8</ele>
        <time>2014-06-22T09:59:33Z</time>
      </trkpt>
      <trkpt lat="45.18341" lon="5.62144">
        <ele>829.8</ele>
        <time>2014-06-22T09:59:37Z</time>
      </trkpt>
      <trkpt lat="45.18369" lon="5.62104">
        <ele>842.4</ele>
        <time>2014-06-22T09:59:42Z</time>
      </trkpt>
      <trkpt lat="45.18404" lon="5.62133">
        <ele>829.2</ele>
        <time>2014-06-22T09:59:46Z</time>
      </trkpt>
      <trkpt lat="45.1844" lon="5.62148">
        <ele>821.3</ele>
        <time>2014-06-22T09:59:50Z</time>
      </trkpt>
      <trkpt lat="45.185" lon="5.62163">
        <ele>817</ele>
        <time>2014-06-22T09:59:56Z</time>
      </trkpt>
      <trkpt lat="45.18561" lon="5.6219">
        <ele>810.1</ele>
        <time>2014-06-22T10:00:02Z</time>
      </trkpt>
      <trkpt lat="45.18663" lon="5.6218">
        <ele>809.4</ele>
        <time>2014-06-22T10:00:12Z</time>
      </trkpt>
      <trkpt lat="45.18691" lon="5.62228">
        <ele>800.7</ele>
        <time>2014-06-22T10:00:16Z</time>
      </trkpt>
      <trkpt lat="45.18723" lon="5.62269">
        <ele>795.1</ele>
        <time>2014-06-22T10:00:20Z</time>
      </trkpt>
      <trkpt lat="45.18859" lon="5.62395">
        <ele>785.6</ele>
        <time>2014-06-22T10:00:35Z</time>
      </trkpt>
      <trkpt lat="45.1899" lon="5.62522">
        <ele>771.8</ele>
        <time>2014-06-22T10:00:51Z</time>
      </trkpt>
      <trkpt lat="45.19028" lon="5.62531">
        <ele>769</ele>
        <time>2014-06-22T10:00:55Z</time>
      </trkpt>
      <trkpt lat="45.19082" lon="5.62507">
        <ele>769.6</ele>
        <time>2014-06-22T10:01:01Z</time>
      </trkpt>
      <trkpt lat="45.19111" lon="5.62507">
        <ele>772</ele>
        <time>2014-06-22T10:01:05Z</time>
      </trkpt>
      <trkpt lat="45.19149" lon="5.62544">
        <ele>765.3</ele>
        <time>2014-06-22T10:01:12Z</time>
      </trkpt>
      <trkpt lat="45.19172" lon="5.62575">
        <ele>757.2</ele>
        <time>2014-06-22T10:01:19Z</time>
      </trkpt>
      <trkpt lat="45.1919" lon="5.62577">
        <ele>755.7</ele>
        <time>2014-06-22T10:01:23Z</time>
      </trkpt>
      <trkpt lat="45.19257" lon="5.62595">
        <ele>747.6</ele>
        <time>2014-06-22T10:01:34Z</time>
      </trkpt>
      <trkpt lat="45.19296" lon="5.62582">
        <ele>749.8</ele>
        <time>2014-06-22T10:01:40Z</time>
      </trkpt>
      <trkpt lat="45.19313" lon="5.62588">
        <ele>747.4</ele>
        <time>2014-06-22T10:01:44Z</time>
      </trkpt>
      <trkpt lat="45.19326" lon="5.62614">
        <ele>740</ele>
        <time>2014-06-22T10:01:48Z</time>
      </trkpt>
      <trkpt lat="45.19378" lon="5.62666">
        <ele>727.4</ele>
        <time>2014-06-22T10:01:58Z</time>
      </trkpt>
      <trkpt lat="45.19409" lon="5.62673">
        <ele>726</ele>
        <time>2014-06-22T10:02:02Z</time>
      </trkpt>
      <trkpt lat="45.19476" lon="5.62693">
        <ele>722.2</ele>
        <time>2014-06-22T10:02:11Z</time>
      </trkpt>
      <trkpt lat="45.19533" lon="5.62734">
        <ele>713.5</ele>
        <time>2014-06-22T10:02:20Z</time>
      </trkpt>
      <trkpt lat="45.19564" lon="5.62768">
        <ele>706.8</ele>
        <time>2014-06-22T10:02:27Z</time>
      </trkpt>
      <trkpt lat="45.196" lon="5.62798">
        <ele>699.3</ele>
        <time>2014-06-22T10:02:34Z</time>
      </trkpt>
      <trkpt lat="45.19658" lon="5.62825">
        <ele>694</ele>
        <time>2014-06-22T10:02:42Z</time>
      </trkpt>
      <trkpt lat="45.19686" lon="5.62847">
        <ele>689.9</ele>
        <time>2014-06-22T10:02:48Z</time>
      </trkpt>
      <trkpt lat="45.19709" lon="5.62848">
        <ele>690.7</ele>
        <time>2014-06-22T10:02:52Z</time>
      </trkpt>
      <trkpt lat="45.19783" lon="5.62912">
        <ele>678.2</ele>
        <time>2014-06-22T10:03:11Z</time>
      </trkpt>
      <trkpt lat="45.19793" lon="5.62932">
        <ele>674.6</ele>
        <time>2014-06-22T10:03:16Z</time>
      </trkpt>
      <trkpt lat="45.19803" lon="5.62946">
        <ele>672</ele>
        <time>2014-06-22T10:03:20Z</time>
      </trkpt>
      <trkpt lat="45.1982" lon="5.62972">
        <ele>666.6</ele>
        <time>2014-06-22T10:03:29Z</time>
      </trkpt>
      <trkpt lat="45.19864" lon="5.63001">
        <ele>663.3</ele>
        <time>2014-06-22T10:03:42Z</time>
      </trkpt>
      <trkpt lat="45.19922" lon="5.62999">
        <ele>672.8</ele>
        <time>2014-06-22T10:04:19Z</time>
      </trkpt>
      <trkpt lat="45.19953" lon="5.6305">
        <ele>657.8</ele>
        <time>2014-06-22T10:04:30Z</time>
      </trkpt>
      <trkpt lat="45.20003" lon="5.6312">
        <ele>643</ele>
        <time>2014-06-22T10:04:39Z</time>
      </trkpt>
      <trkpt lat="45.20042" lon="5.63138">
        <ele>640.1</ele>
        <time>2014-06-22T10:04:43Z</time>
      </trkpt>
      <trkpt lat="45.20115" lon="5.63166">
        <ele>632.9</ele>
        <time>2014-06-22T10:04:51Z</time>
      </trkpt>
      <trkpt lat="45.20145" lon="5.63194">
        <ele>626.6</ele>
        <time>2014-06-22T10:04:56Z</time>
      </trkpt>
      <trkpt lat="45.20152" lon="5.63196">
        <ele>626.2</ele>
        <time>2014-06-22T10:05:00Z</time>
      </trkpt>
      <trkpt lat="45.2009" lon="5.6318">
        <ele>628.7</ele>
        <time>2014-06-22T10:05:12Z</time>
      </trkpt>
      <trkpt lat="45.20001" lon="5.6319">
        <ele>623.2</ele>
        <time>2014-06-22T10:05:23Z</time>
      </trkpt>
      <trkpt lat="45.19969" lon="5.63169">
        <ele>625.9</ele>
        <time>2014-06-22T10:05:27Z</time>
      </trkpt>
      <trkpt lat="45.19902" lon="5.63162">
        <ele>621.6</ele>
        <time>2014-06-22T10:05:36Z</time>
      </trkpt>
      <trkpt lat="45.19913" lon="5.63201">
        <ele>611.7</ele>
        <time>2014-06-22T10:05:40Z</time>
      </trkpt>
      <trkpt lat="45.19959" lon="5.63207">
        <ele>613.6</ele>
        <time>2014-06-22T10:05:45Z</time>
      </trkpt>
      <trkpt lat="45.19986" lon="5.63217">
        <ele>613</ele>
        <time>2014-06-22T10:05:49Z</time>
      </trkpt>
      <trkpt lat="45.20022" lon="5.63237">
        <ele>608.9</ele>
        <time>2014-06-22T10:05:56Z</time>
      </trkpt>
      <trkpt lat="45.20086" lon="5.63257">
        <ele>607.2</ele>
        <time>2014-06-22T10:06:07Z</time>
      </trkpt>
      <trkpt lat="45.20138" lon="5.63274">
        <ele>603.4</ele>
        <time>2014-06-22T10:06:18Z</time>
      </trkpt>
      <trkpt lat="45.20152" lon="5.6328">
        <ele>602.1</ele>
        <time>2014-06-22T10:06:22Z</time>
      </trkpt>
      <trkpt lat="45.20164" lon="5.63289">
        <ele>600.2</ele>
        <time>2014-06-22T10:06:26Z</time>
      </trkpt>
      <trkpt lat="45.20173" lon="5.63307">
        <ele>595.7</ele>
        <time>2014-06-22T10:06:30Z</time>
      </trkpt>
      <trkpt lat="45.20203" lon="5.63323">
        <ele>596.5</ele>
        <time>2014-06-22T10:06:36Z</time>
      </trkpt>
      <trkpt lat="45.20221" lon="5.63334">
        <ele>596.1</ele>
        <time>2014-06-22T10:06:40Z</time>
      </trkpt>
      <trkpt lat="45.20243" lon="5.63354">
        <ele>595.9</ele>
        <time>2014-06-22T10:06:45Z</time>
      </trkpt>
      <trkpt lat="45.20245" lon="5.63392">
        <ele>587.4</ele>
        <time>2014-06-22T10:06:49Z</time>
      </trkpt>
      <trkpt lat="45.20249" lon="5.63464">
        <ele>571.1</ele>
        <time>2014-06-22T10:06:57Z</time>
      </trkpt>
      <trkpt lat="45.20294" lon="5.63561">
        <ele>569.3</ele>
        <time>2014-06-22T10:07:08Z</time>
      </trkpt>
      <trkpt lat="45.20323" lon="5.63601">
        <ele>569.9</ele>
        <time>2014-06-22T10:07:15Z</time>
      </trkpt>
      <trkpt lat="45.2033" lon="5.63614">
        <ele>568.9</ele>
        <time>2014-06-22T10:07:26Z</time>
      </trkpt>
      <trkpt lat="45.20333" lon="5.63685">
        <ele>556.9</ele>
        <time>2014-06-22T10:07:39Z</time>
      </trkpt>
      <trkpt lat="45.20346" lon="5.63718">
        <ele>554.2</ele>
        <time>2014-06-22T10:07:44Z</time>
      </trkpt>
      <trkpt lat="45.2036" lon="5.6374">
        <ele>553</ele>
        <time>2014-06-22T10:07:48Z</time>
      </trkpt>
      <trkpt lat="45.20392" lon="5.63782">
        <ele>550.6</ele>
        <time>2014-06-22T10:07:59Z</time>
      </trkpt>
      <trkpt lat="45.20427" lon="5.63818">
        <ele>546.7</ele>
        <time>2014-06-22T10:08:09Z</time>
      </trkpt>
      <trkpt lat="45.20443" lon="5.63836">
        <ele>545.6</ele>
        <time>2014-06-22T10:08:13Z</time>
      </trkpt>
      <trkpt lat="45.20488" lon="5.63925">
        <ele>539.7</ele>
        <time>2014-06-22T10:08:26Z</time>
      </trkpt>
      <trkpt lat="45.20547" lon="5.64038">
        <ele>538.1</ele>
        <time>2014-06-22T10:08:42Z</time>
      </trkpt>
      <trkpt lat="45.20593" lon="5.64144">
        <ele>530.3</ele>
        <time>2014-06-22T10:08:56Z</time>
      </trkpt>
      <trkpt lat="45.2064" lon="5.64183">
        <ele>532.2</ele>
        <time>2014-06-22T10:09:05Z</time>
      </trkpt>
      <trkpt lat="45.20712" lon="5.64195">
        <ele>529</ele>
        <time>2014-06-22T10:09:15Z</time>
      </trkpt>
      <trkpt lat="45.20749" lon="5.64197">
        <ele>526.8</ele>
        <time>2014-06-22T10:09:22Z</time>
      </trkpt>
      <trkpt lat="45.20782" lon="5.64245">
        <ele>510.4</ele>
        <time>2014-06-22T10:09:54Z</time>
      </trkpt>
      <trkpt lat="45.20828" lon="5.64258">
        <ele>491.1</ele>
        <time>2014-06-22T10:10:05Z</time>
      </trkpt>
      <trkpt lat="45.20859" lon="5.64276">
        <ele>479.5</ele>
        <time>2014-06-22T10:10:11Z</time>
      </trkpt>
      <trkpt lat="45.20899" lon="5.64269">
        <ele>465.9</ele>
        <time>2014-06-22T10:10:20Z</time>
      </trkpt>
      <trkpt lat="45.20957" lon="5.64245">
        <ele>459.3</ele>
        <time>2014-06-22T10:10:32Z</time>
      </trkpt>
      <trkpt lat="45.20986" lon="5.64237">
        <ele>456.5</ele>
        <time>2014-06-22T10:10:50Z</time>
      </trkpt>
      <trkpt lat="45.21007" lon="5.64237">
        <ele>451.9</ele>
        <time>2014-06-22T10:10:54Z</time>
      </trkpt>
      <trkpt lat="45.21045" lon="5.64245">
        <ele>443.2</ele>
        <time>2014-06-22T10:11:02Z</time>
      </trkpt>
      <trkpt lat="45.21068" lon="5.64248">
        <ele>438.7</ele>
        <time>2014-06-22T10:11:08Z</time>
      </trkpt>
      <trkpt lat="45.21086" lon="5.64261">
        <ele>434.1</ele>
        <time>2014-06-22T10:11:13Z</time>
      </trkpt>
      <trkpt lat="45.21084" lon="5.64287">
        <ele>429.7</ele>
        <time>2014-06-22T10:11:17Z</time>
      </trkpt>
      <trkpt lat="45.21057" lon="5.64321">
        <ele>426</ele>
        <time>2014-06-22T10:11:23Z</time>
      </trkpt>
      <trkpt lat="45.21061" lon="5.64369">
        <ele>415.1</ele>
        <time>2014-06-22T10:11:28Z</time>
      </trkpt>
      <trkpt lat="45.21066" lon="5.64418">
        <ele>404.1</ele>
        <time>2014-06-22T10:11:34Z</time>
      </trkpt>
      <trkpt lat="45.21059" lon="5.6449">
        <ele>394.2</ele>
        <time>2014-06-22T10:11:47Z</time>
      </trkpt>
      <trkpt lat="45.21039" lon="5.64544">
        <ele>385.4</ele>
        <time>2014-06-22T10:11:57Z</time>
      </trkpt>
      <trkpt lat="45.21018" lon="5.64571">
        <ele>381.5</ele>
        <time>2014-06-22T10:12:01Z</time>
      </trkpt>
      <trkpt lat="45.21013" lon="5.64618">
        <ele>377.1</ele>
        <time>2014-06-22T10:12:05Z</time>
      </trkpt>
      <trkpt lat="45.21017" lon="5.64722">
        <ele>367.1</ele>
        <time>2014-06-22T10:12:15Z</time>
      </trkpt>
      <trkpt lat="45.21016" lon="5.64747">
        <ele>364.4</ele>
        <time>2014-06-22T10:12:19Z</time>
      </trkpt>
      <trkpt lat="45.20986" lon="5.64816">
        <ele>356.8</ele>
        <time>2014-06-22T10:12:27Z</time>
      </trkpt>
      <trkpt lat="45.20986" lon="5.64861">
        <ele>354</ele>
        <time>2014-06-22T10:12:31Z</time>
      </trkpt>
      <trkpt lat="45.21014" lon="5.64884">
        <ele>351.1</ele>
        <time>2014-06-22T10:12:35Z</time>
      </trkpt>
      <trkpt lat="45.21043" lon="5.64905">
        <ele>349</ele>
        <time>2014-06-22T10:12:40Z</time>
      </trkpt>
      <trkpt lat="45.21088" lon="5.6495">
        <ele>347.6</ele>
        <time>2014-06-22T10:12:50Z</time>
      </trkpt>
      <trkpt lat="45.21118" lon="5.64995">
        <ele>343.5</ele>
        <time>2014-06-22T10:12:56Z</time>
      </trkpt>
      <trkpt lat="45.21174" lon="5.65">
        <ele>332.2</ele>
        <time>2014-06-22T10:13:02Z</time>
      </trkpt>
      <trkpt lat="45.21191" lon="5.65044">
        <ele>326.4</ele>
        <time>2014-06-22T10:13:06Z</time>
      </trkpt>
      <trkpt lat="45.2121" lon="5.65198">
        <ele>310.5</ele>
        <time>2014-06-22T10:13:17Z</time>
      </trkpt>
      <trkpt lat="45.21212" lon="5.65237">
        <ele>308</ele>
        <time>2014-06-22T10:13:25Z</time>
      </trkpt>
      <trkpt lat="45.212" lon="5.65279">
        <ele>304.5</ele>
        <time>2014-06-22T10:13:38Z</time>
      </trkpt>
      <trkpt lat="45.21176" lon="5.65352">
        <ele>297.1</ele>
        <time>2014-06-22T10:13:49Z</time>
      </trkpt>
      <trkpt lat="45.21153" lon="5.6545">
        <ele>281.4</ele>
        <time>2014-06-22T10:14:07Z</time>
      </trkpt>
      <trkpt lat="45.21142" lon="5.65499">
        <ele>270.6</ele>
        <time>2014-06-22T10:14:14Z</time>
      </trkpt>
      <trkpt lat="45.21126" lon="5.65509">
        <ele>271.6</ele>
        <time>2014-06-22T10:14:18Z</time>
      </trkpt>
      <trkpt lat="45.21087" lon="5.65554">
        <ele>261.6</ele>
        <time>2014-06-22T10:14:27Z</time>
      </trkpt>
      <trkpt lat="45.21058" lon="5.6562">
        <ele>241.1</ele>
        <time>2014-06-22T10:14:37Z</time>
      </trkpt>
      <trkpt lat="45.21005" lon="5.6566">
        <ele>236.1</ele>
        <time>2014-06-22T10:14:54Z</time>
      </trkpt>
      <trkpt lat="45.20946" lon="5.65673">
        <ele>227.6</ele>
        <time>2014-06-22T10:15:07Z</time>
      </trkpt>
      <trkpt lat="45.20912" lon="5.65665">
        <ele>225.2</ele>
        <time>2014-06-22T10:15:18Z</time>
      </trkpt>
      <trkpt lat="45.20897" lon="5.65676">
        <ele>223</ele>
        <time>2014-06-22T10:15:29Z</time>
      </trkpt>
      <trkpt lat="45.20894" lon="5.65696">
        <ele>222.1</ele>
        <time>2014-06-22T10:15:33Z</time>
      </trkpt>
      <trkpt lat="45.20911" lon="5.65762">
        <ele>222</ele>
        <time>2014-06-22T10:15:59Z</time>
      </trkpt>
      <trkpt lat="45.20908" lon="5.65753">
        <ele>221.5</ele>
        <time>2014-06-22T10:16:57Z</time>
      </trkpt>
      <trkpt lat="45.20888" lon="5.65758">
        <ele>220.1</ele>
        <time>2014-06-22T10:17:14Z</time>
      </trkpt>
      <trkpt lat="45.20876" lon="5.65769">
        <ele>219.3</ele>
        <time>2014-06-22T10:17:18Z</time>
      </trkpt>
      <trkpt lat="45.20857" lon="5.65795">
        <ele>217.8</ele>
        <time>2014-06-22T10:17:22Z</time>
      </trkpt>
      <trkpt lat="45.20838" lon="5.65794">
        <ele>216</ele>
        <time>2014-06-22T10:17:26Z</time>
      </trkpt>
      <trkpt lat="45.20791" lon="5.6578">
        <ele>215.8</ele>
        <time>2014-06-22T10:17:44Z</time>
      </trkpt>
      <trkpt lat="45.20794" lon="5.65786">
        <ele>215.8</ele>
        <time>2014-06-22T10:17:48Z</time>
      </trkpt>
      <trkpt lat="45.20788" lon="5.65797">
        <ele>215.7</ele>
        <time>2014-06-22T10:17:52Z</time>
      </trkpt>
      <trkpt lat="45.20774" lon="5.65806">
        <ele>215.8</ele>
        <time>2014-06-22T10:17:56Z</time>
      </trkpt>
      <trkpt lat="45.20723" lon="5.65841">
        <ele>215.2</ele>
        <time>2014-06-22T10:18:11Z</time>
      </trkpt>
      <trkpt lat="45.20694" lon="5.65865">
        <ele>214.2</ele>
        <time>2014-06-22T10:18:17Z</time>
      </trkpt>
      <trkpt lat="45.20626" lon="5.65933">
        <ele>211.2</ele>
        <time>2014-06-22T10:18:33Z</time>
      </trkpt>
      <trkpt lat="45.2046" lon="5.66058">
        <ele>212.8</ele>
        <time>2014-06-22T10:19:14Z</time>
      </trkpt>
      <trkpt lat="45.20357" lon="5.66155">
        <ele>209.9</ele>
        <time>2014-06-22T10:19:37Z</time>
      </trkpt>
      <trkpt lat="45.20261" lon="5.66249">
        <ele>209</ele>
        <time>2014-06-22T10:19:58Z</time>
      </trkpt>
      <trkpt lat="45.2004" lon="5.66395">
        <ele>222.4</ele>
        <time>2014-06-22T10:20:44Z</time>
      </trkpt>
      <trkpt lat="45.19821" lon="5.66518">
        <ele>212.9</ele>
        <time>2014-06-22T10:21:33Z</time>
      </trkpt>
      <trkpt lat="45.19731" lon="5.66577">
        <ele>212.1</ele>
        <time>2014-06-22T10:21:53Z</time>
      </trkpt>
      <trkpt lat="45.1971" lon="5.66597">
        <ele>211.5</ele>
        <time>2014-06-22T10:21:58Z</time>
      </trkpt>
      <trkpt lat="45.19691" lon="5.66605">
        <ele>211.2</ele>
        <time>2014-06-22T10:22:02Z</time>
      </trkpt>
      <trkpt lat="45.19667" lon="5.6662">
        <ele>210.7</ele>
        <time>2014-06-22T10:22:07Z</time>
      </trkpt>
      <trkpt lat="45.19637" lon="5.66654">
        <ele>212.7</ele>
        <time>2014-06-22T10:22:14Z</time>
      </trkpt>
      <trkpt lat="45.19599" lon="5.6668">
        <ele>215.9</ele>
        <time>2014-06-22T10:22:21Z</time>
      </trkpt>
      <trkpt lat="45.19525" lon="5.66707">
        <ele>220.2</ele>
        <time>2014-06-22T10:22:34Z</time>
      </trkpt>
      <trkpt lat="45.19484" lon="5.66747">
        <ele>221.6</ele>
        <time>2014-06-22T10:22:47Z</time>
      </trkpt>
      <trkpt lat="45.19368" lon="5.66798">
        <ele>228.9</ele>
        <time>2014-06-22T10:23:12Z</time>
      </trkpt>
      <trkpt lat="45.19308" lon="5.66846">
        <ele>233.2</ele>
        <time>2014-06-22T10:23:28Z</time>
      </trkpt>
      <trkpt lat="45.19299" lon="5.66865">
        <ele>232.5</ele>
        <time>2014-06-22T10:23:32Z</time>
      </trkpt>
      <trkpt lat="45.1929" lon="5.66884">
        <ele>230.9</ele>
        <time>2014-06-22T10:23:38Z</time>
      </trkpt>
      <trkpt lat="45.19289" lon="5.66908">
        <ele>225.8</ele>
        <time>2014-06-22T10:23:42Z</time>
      </trkpt>
      <trkpt lat="45.19276" lon="5.66982">
        <ele>222.3</ele>
        <time>2014-06-22T10:23:54Z</time>
      </trkpt>
      <trkpt lat="45.19257" lon="5.6707">
        <ele>219.1</ele>
        <time>2014-06-22T10:24:04Z</time>
      </trkpt>
      <trkpt lat="45.19222" lon="5.67137">
        <ele>226.2</ele>
        <time>2014-06-22T10:24:15Z</time>
      </trkpt>
      <trkpt lat="45.19182" lon="5.67191">
        <ele>230</ele>
        <time>2014-06-22T10:24:26Z</time>
      </trkpt>
      <trkpt lat="45.1917" lon="5.67383">
        <ele>210.5</ele>
        <time>2014-06-22T10:24:59Z</time>
      </trkpt>
      <trkpt lat="45.19169" lon="5.67605">
        <ele>207.7</ele>
        <time>2014-06-22T10:25:25Z</time>
      </trkpt>
      <trkpt lat="45.19156" lon="5.67665">
        <ele>207.4</ele>
        <time>2014-06-22T10:25:33Z</time>
      </trkpt>
      <trkpt lat="45.19051" lon="5.67892">
        <ele>219.6</ele>
        <time>2014-06-22T10:25:58Z</time>
      </trkpt>
      <trkpt lat="45.18972" lon="5.67992">
        <ele>222.1</ele>
        <time>2014-06-22T10:26:10Z</time>
      </trkpt>
      <trkpt lat="45.18917" lon="5.68043">
        <ele>229.6</ele>
        <time>2014-06-22T10:26:20Z</time>
      </trkpt>
      <trkpt lat="45.18764" lon="5.68199">
        <ele>225.6</ele>
        <time>2014-06-22T10:26:52Z</time>
      </trkpt>
      <trkpt lat="45.18697" lon="5.68296">
        <ele>219.7</ele>
        <time>2014-06-22T10:27:10Z</time>
      </trkpt>
      <trkpt lat="45.18617" lon="5.68434">
        <ele>215.5</ele>
        <time>2014-06-22T10:27:31Z</time>
      </trkpt>
      <trkpt lat="45.18555" lon="5.68538">
        <ele>225.5</ele>
        <time>2014-06-22T10:27:46Z</time>
      </trkpt>
      <trkpt lat="45.18541" lon="5.68557">
        <ele>230.6</ele>
        <time>2014-06-22T10:27:50Z</time>
      </trkpt>
      <trkpt lat="45.18484" lon="5.68748">
        <ele>220.9</ele>
        <time>2014-06-22T10:28:15Z</time>
      </trkpt>
      <trkpt lat="45.18527" lon="5.68848">
        <ele>217.1</ele>
        <time>2014-06-22T10:28:30Z</time>
      </trkpt>
      <trkpt lat="45.18512" lon="5.68861">
        <ele>217.8</ele>
        <time>2014-06-22T10:28:34Z</time>
      </trkpt>
      <trkpt lat="45.18504" lon="5.68853">
        <ele>218.1</ele>
        <time>2014-06-22T10:29:34Z</time>
      </trkpt>
    </trkseg>
  </trk>
</gpx>